AFL295 UHMA-UMKK
Flight info
| Callsign | AFL295 |
|---|---|
| Flight time | 8h 15m |
| Altitude | 40000 |
| Route | TOMRI1V TOMRI G7 TUMOK M131 ULKAM N866 AGAMO/N0494F400 DCT ETOBA DCT SIGGE DCT RATMU DCT LEDUN DCT NITSO DCT LUTAL DCT VALED DCT MIRMA DCT NERIG NERIG3G |
| Aircraft | A359/H-SDE2E3GHIJ3J4J5LM1ORWXY/LB1D1 |
Departure
| Time | 2026-04-28 06:56 |
|---|---|
| Airport | Ugolny Yuri Ryktheu Airport (UHMA) |
Arrival
| Time | 2026-04-28 15:11 |
|---|---|
| Airport | Khrabrovo Airport (UMKK) |
| Time | Latitude | Longitude | Altitude | Speed | Heading |
|---|---|---|---|---|---|
| 2026-04-28 06:38 | 64.71436 | 177.73938 | 160 ft | 0 kts | 274° |
| 2026-04-28 06:39 | 64.71436 | 177.73939 | 160 ft | 0 kts | 274° |
| 2026-04-28 06:50 | 64.71436 | 177.73966 | 160 ft | 4 kts | 274° |
| 2026-04-28 06:50 | 64.71434 | 177.74029 | 160 ft | 4 kts | 274° |
| 2026-04-28 06:50 | 64.71431 | 177.74090 | 160 ft | 4 kts | 281° |
| 2026-04-28 06:50 | 64.71424 | 177.74147 | 160 ft | 4 kts | 302° |
| 2026-04-28 06:51 | 64.71415 | 177.74176 | 160 ft | 1 kts | 321° |
| 2026-04-28 06:53 | 64.71449 | 177.74112 | 160 ft | 16 kts | 321° |
| 2026-04-28 06:54 | 64.71556 | 177.73898 | 160 ft | 21 kts | 319° |
| 2026-04-28 06:54 | 64.71670 | 177.73666 | 160 ft | 22 kts | 319° |
| 2026-04-28 06:54 | 64.71798 | 177.73465 | 159 ft | 20 kts | 334° |
| 2026-04-28 06:54 | 64.71899 | 177.73350 | 160 ft | 16 kts | 336° |
| 2026-04-28 06:55 | 64.71976 | 177.73332 | 162 ft | 7 kts | 349° |
| 2026-04-28 06:55 | 64.72014 | 177.73284 | 163 ft | 7 kts | 333° |
| 2026-04-28 06:55 | 64.72069 | 177.73276 | 163 ft | 10 kts | 9° |
| 2026-04-28 06:55 | 64.72094 | 177.73290 | 162 ft | 1 kts | 15° |
| 2026-04-28 06:56 | 64.72259 | 177.73393 | 163 ft | 60 kts | 15° |
| 2026-04-28 06:56 | 64.72896 | 177.73786 | 175 ft | 127 kts | 14° |
| 2026-04-28 06:56 | 64.73915 | 177.74411 | 426 ft | 158 kts | 15° |
| 2026-04-28 06:56 | 64.74957 | 177.75021 | 1351 ft | 152 kts | 16° |
| 2026-04-28 06:57 | 64.76019 | 177.75504 | 1889 ft | 166 kts | 7° |
| 2026-04-28 06:57 | 64.77189 | 177.74536 | 2099 ft | 202 kts | 323° |
| 2026-04-28 06:57 | 64.78119 | 177.71775 | 2407 ft | 230 kts | 307° |
| 2026-04-28 06:57 | 64.79035 | 177.68492 | 2827 ft | 248 kts | 308° |
| 2026-04-28 06:58 | 64.80029 | 177.65081 | 3443 ft | 257 kts | 308° |
| 2026-04-28 06:58 | 64.81076 | 177.61627 | 4205 ft | 261 kts | 308° |
| 2026-04-28 06:58 | 64.82144 | 177.58171 | 4993 ft | 263 kts | 309° |
| 2026-04-28 06:58 | 64.83231 | 177.54692 | 5779 ft | 265 kts | 309° |
| 2026-04-28 06:59 | 64.84332 | 177.51184 | 6548 ft | 268 kts | 309° |
| 2026-04-28 06:59 | 64.85423 | 177.47716 | 7269 ft | 272 kts | 309° |
| 2026-04-28 06:59 | 64.86560 | 177.44103 | 8000 ft | 277 kts | 310° |
| 2026-04-28 06:59 | 64.87712 | 177.40444 | 8756 ft | 281 kts | 310° |
| 2026-04-28 07:00 | 64.88884 | 177.36717 | 9529 ft | 285 kts | 310° |
| 2026-04-28 07:00 | 64.90056 | 177.32985 | 10192 ft | 292 kts | 310° |
| 2026-04-28 07:00 | 64.91301 | 177.29029 | 10540 ft | 310 kts | 310° |
| 2026-04-28 07:00 | 64.92621 | 177.24828 | 10876 ft | 328 kts | 310° |
| 2026-04-28 07:01 | 64.94026 | 177.20337 | 11218 ft | 345 kts | 310° |
| 2026-04-28 07:01 | 64.95463 | 177.15730 | 11564 ft | 360 kts | 310° |
| 2026-04-28 07:01 | 64.96961 | 177.10908 | 12146 ft | 367 kts | 310° |
| 2026-04-28 07:01 | 64.98480 | 177.06003 | 12810 ft | 372 kts | 310° |
| 2026-04-28 07:02 | 65.00018 | 177.01029 | 13508 ft | 377 kts | 310° |
| 2026-04-28 07:02 | 65.01569 | 176.96004 | 14153 ft | 381 kts | 310° |
| 2026-04-28 07:02 | 65.03138 | 176.90911 | 14680 ft | 384 kts | 309° |
| 2026-04-28 07:02 | 65.04714 | 176.85785 | 14884 ft | 385 kts | 309° |
| 2026-04-28 07:03 | 65.06289 | 176.80647 | 14902 ft | 386 kts | 309° |
| 2026-04-28 07:03 | 65.07869 | 176.75482 | 14907 ft | 387 kts | 309° |
| 2026-04-28 07:03 | 65.09450 | 176.70304 | 14908 ft | 388 kts | 309° |
| 2026-04-28 07:03 | 65.11032 | 176.65112 | 14905 ft | 388 kts | 309° |
| 2026-04-28 07:04 | 65.12607 | 176.59929 | 14911 ft | 388 kts | 309° |
| 2026-04-28 07:04 | 65.14164 | 176.54793 | 14908 ft | 388 kts | 309° |
| 2026-04-28 07:04 | 65.15737 | 176.49595 | 14914 ft | 388 kts | 308° |
| 2026-04-28 07:04 | 65.17315 | 176.44367 | 14916 ft | 388 kts | 308° |
| 2026-04-28 07:05 | 65.18883 | 176.39160 | 14916 ft | 388 kts | 308° |
| 2026-04-28 07:05 | 65.20454 | 176.33932 | 14922 ft | 388 kts | 308° |
| 2026-04-28 07:05 | 65.22025 | 176.28693 | 14920 ft | 388 kts | 308° |
| 2026-04-28 07:05 | 65.23591 | 176.23460 | 14926 ft | 388 kts | 308° |
| 2026-04-28 07:06 | 65.25190 | 176.18250 | 15189 ft | 390 kts | 309° |
| 2026-04-28 07:06 | 65.26843 | 176.13097 | 15894 ft | 390 kts | 310° |
| 2026-04-28 07:06 | 65.28513 | 176.07969 | 16646 ft | 391 kts | 310° |
| 2026-04-28 07:06 | 65.30190 | 176.02824 | 17318 ft | 394 kts | 310° |
| 2026-04-28 07:07 | 65.31875 | 175.97621 | 17979 ft | 397 kts | 310° |
| 2026-04-28 07:07 | 65.33568 | 175.92354 | 18575 ft | 400 kts | 310° |
| 2026-04-28 07:07 | 65.35265 | 175.87037 | 19126 ft | 404 kts | 310° |
| 2026-04-28 07:07 | 65.36955 | 175.81712 | 19684 ft | 408 kts | 310° |
| 2026-04-28 07:08 | 65.38702 | 175.76184 | 20246 ft | 412 kts | 309° |
| 2026-04-28 07:08 | 65.40436 | 175.70680 | 20817 ft | 415 kts | 309° |
| 2026-04-28 07:08 | 65.42161 | 175.65192 | 21369 ft | 419 kts | 309° |
| 2026-04-28 07:08 | 65.43918 | 175.59592 | 21945 ft | 422 kts | 309° |
| 2026-04-28 07:09 | 65.45696 | 175.53912 | 22497 ft | 426 kts | 309° |
| 2026-04-28 07:09 | 65.47482 | 175.48191 | 23070 ft | 429 kts | 309° |
| 2026-04-28 07:09 | 65.49280 | 175.42417 | 23588 ft | 433 kts | 309° |
| 2026-04-28 07:09 | 65.51094 | 175.36580 | 24036 ft | 436 kts | 309° |
| 2026-04-28 07:10 | 65.52910 | 175.30718 | 24511 ft | 439 kts | 309° |
| 2026-04-28 07:10 | 65.54745 | 175.24804 | 24976 ft | 442 kts | 309° |
| 2026-04-28 07:10 | 65.56591 | 175.18840 | 25446 ft | 444 kts | 309° |
| 2026-04-28 07:10 | 65.58442 | 175.12841 | 25906 ft | 447 kts | 309° |
| 2026-04-28 07:11 | 65.60304 | 175.06786 | 26375 ft | 450 kts | 309° |
| 2026-04-28 07:11 | 65.62177 | 175.00680 | 26831 ft | 453 kts | 309° |
| 2026-04-28 07:11 | 65.64058 | 174.94532 | 27294 ft | 456 kts | 309° |
| 2026-04-28 07:11 | 65.65946 | 174.88347 | 27746 ft | 458 kts | 309° |
| 2026-04-28 07:12 | 65.67845 | 174.82106 | 28191 ft | 461 kts | 309° |
| 2026-04-28 07:12 | 65.69750 | 174.75826 | 28635 ft | 464 kts | 309° |
| 2026-04-28 07:12 | 65.71670 | 174.69481 | 29060 ft | 466 kts | 309° |
| 2026-04-28 07:12 | 65.73593 | 174.63110 | 29471 ft | 469 kts | 309° |
| 2026-04-28 07:13 | 65.75505 | 174.56755 | 29869 ft | 471 kts | 308° |
| 2026-04-28 07:13 | 65.77439 | 174.50289 | 30215 ft | 474 kts | 308° |
| 2026-04-28 07:13 | 65.79354 | 174.43725 | 30506 ft | 477 kts | 307° |
| 2026-04-28 07:13 | 65.81263 | 174.37086 | 30784 ft | 480 kts | 307° |
| 2026-04-28 07:14 | 65.83179 | 174.30386 | 31052 ft | 483 kts | 307° |
| 2026-04-28 07:14 | 65.85100 | 174.23652 | 31332 ft | 485 kts | 307° |
| 2026-04-28 07:14 | 65.87035 | 174.16870 | 31670 ft | 486 kts | 307° |
| 2026-04-28 07:14 | 65.88966 | 174.10090 | 32061 ft | 485 kts | 307° |
| 2026-04-28 07:15 | 65.90894 | 174.03313 | 32418 ft | 485 kts | 307° |
| 2026-04-28 07:15 | 65.92819 | 173.96534 | 32771 ft | 486 kts | 307° |
| 2026-04-28 07:15 | 65.94748 | 173.89738 | 33131 ft | 485 kts | 307° |
| 2026-04-28 07:15 | 65.96673 | 173.82928 | 33478 ft | 485 kts | 307° |
| 2026-04-28 07:16 | 65.98593 | 173.76115 | 33824 ft | 485 kts | 307° |
| 2026-04-28 07:16 | 66.00513 | 173.69282 | 34119 ft | 485 kts | 306° |
| 2026-04-28 07:16 | 66.02426 | 173.62450 | 34369 ft | 486 kts | 306° |
| 2026-04-28 07:16 | 66.04340 | 173.55596 | 34620 ft | 486 kts | 306° |
| 2026-04-28 07:17 | 66.06251 | 173.48733 | 34862 ft | 486 kts | 306° |
| 2026-04-28 07:17 | 66.08163 | 173.41840 | 35101 ft | 487 kts | 306° |
| 2026-04-28 07:17 | 66.10071 | 173.34945 | 35335 ft | 487 kts | 306° |
| 2026-04-28 07:17 | 66.11951 | 173.28125 | 35562 ft | 487 kts | 306° |
| 2026-04-28 07:18 | 66.13864 | 173.21186 | 35779 ft | 488 kts | 306° |
| 2026-04-28 07:18 | 66.15782 | 173.14255 | 35991 ft | 488 kts | 306° |
| 2026-04-28 07:18 | 66.17706 | 173.07328 | 36202 ft | 489 kts | 306° |
| 2026-04-28 07:18 | 66.19631 | 173.00392 | 36396 ft | 489 kts | 306° |
| 2026-04-28 07:19 | 66.20907 | 172.95786 | 36564 ft | 490 kts | 306° |
| 2026-04-28 07:19 | 66.22831 | 172.88816 | 36753 ft | 490 kts | 306° |
| 2026-04-28 07:19 | 66.24755 | 172.81820 | 36949 ft | 491 kts | 306° |
| 2026-04-28 07:19 | 66.26672 | 172.74819 | 37145 ft | 491 kts | 305° |
| 2026-04-28 07:20 | 66.28590 | 172.67792 | 37330 ft | 491 kts | 305° |
| 2026-04-28 07:20 | 66.30508 | 172.60739 | 37525 ft | 492 kts | 305° |
| 2026-04-28 07:20 | 66.32420 | 172.53683 | 37717 ft | 492 kts | 305° |
| 2026-04-28 07:20 | 66.34333 | 172.46604 | 37881 ft | 492 kts | 305° |
| 2026-04-28 07:21 | 66.36236 | 172.39537 | 38062 ft | 493 kts | 305° |
| 2026-04-28 07:21 | 66.38149 | 172.32412 | 38224 ft | 493 kts | 305° |
| 2026-04-28 07:21 | 66.40058 | 172.25279 | 38414 ft | 494 kts | 304° |
| 2026-04-28 07:22 | 66.43869 | 172.10969 | 38702 ft | 495 kts | 304° |
| 2026-04-28 07:22 | 66.45744 | 172.03894 | 38827 ft | 495 kts | 304° |
| 2026-04-28 07:22 | 66.47667 | 171.96617 | 38935 ft | 495 kts | 304° |
| 2026-04-28 07:22 | 66.49563 | 171.89417 | 39047 ft | 496 kts | 304° |
| 2026-04-28 07:23 | 66.51463 | 171.82177 | 39166 ft | 496 kts | 304° |
| 2026-04-28 07:23 | 66.53330 | 171.75041 | 39265 ft | 496 kts | 304° |
| 2026-04-28 07:23 | 66.55222 | 171.67785 | 39376 ft | 496 kts | 304° |
| 2026-04-28 07:23 | 66.57110 | 171.60518 | 39480 ft | 497 kts | 304° |
| 2026-04-28 07:24 | 66.60881 | 171.45940 | 39675 ft | 497 kts | 304° |
| 2026-04-28 07:24 | 66.64637 | 171.31316 | 39860 ft | 497 kts | 304° |
| 2026-04-28 07:25 | 66.68388 | 171.16621 | 40039 ft | 498 kts | 303° |
| 2026-04-28 07:25 | 66.72131 | 171.01852 | 40067 ft | 501 kts | 303° |
| 2026-04-28 07:26 | 66.75874 | 170.87074 | 40083 ft | 502 kts | 303° |
| 2026-04-28 07:26 | 66.79648 | 170.72192 | 40070 ft | 502 kts | 303° |
| 2026-04-28 07:27 | 66.83405 | 170.57277 | 40074 ft | 502 kts | 303° |
| 2026-04-28 07:27 | 66.87145 | 170.42306 | 40082 ft | 502 kts | 303° |
| 2026-04-28 07:28 | 66.90878 | 170.27285 | 40066 ft | 502 kts | 303° |
| 2026-04-28 07:28 | 66.94598 | 170.12244 | 40074 ft | 501 kts | 303° |
| 2026-04-28 07:29 | 66.98300 | 169.97158 | 40057 ft | 501 kts | 303° |
| 2026-04-28 07:29 | 67.01963 | 169.82136 | 40061 ft | 500 kts | 302° |
| 2026-04-28 07:30 | 67.05627 | 169.67005 | 40049 ft | 500 kts | 302° |
| 2026-04-28 07:30 | 67.09281 | 169.51812 | 40062 ft | 500 kts | 302° |
| 2026-04-28 07:31 | 67.12911 | 169.36612 | 40052 ft | 499 kts | 302° |
| 2026-04-28 07:31 | 67.16533 | 169.21341 | 40054 ft | 499 kts | 302° |
| 2026-04-28 07:32 | 67.20136 | 169.06040 | 40052 ft | 499 kts | 302° |
| 2026-04-28 07:32 | 67.23735 | 168.90697 | 40049 ft | 499 kts | 301° |
| 2026-04-28 07:33 | 67.27318 | 168.75318 | 40049 ft | 500 kts | 301° |
| 2026-04-28 07:33 | 67.30865 | 168.59983 | 40044 ft | 500 kts | 301° |
| 2026-04-28 07:34 | 67.34443 | 168.44406 | 40045 ft | 500 kts | 301° |
| 2026-04-28 07:34 | 67.37960 | 168.28981 | 40040 ft | 500 kts | 301° |
| 2026-04-28 07:35 | 67.41489 | 168.13399 | 40047 ft | 500 kts | 301° |
| 2026-04-28 07:35 | 67.45001 | 167.97775 | 40046 ft | 500 kts | 301° |
| 2026-04-28 07:36 | 67.48508 | 167.82063 | 40046 ft | 500 kts | 301° |
| 2026-04-28 07:36 | 67.51994 | 167.66328 | 40049 ft | 501 kts | 300° |
| 2026-04-28 07:37 | 67.55469 | 167.50559 | 40048 ft | 501 kts | 300° |
| 2026-04-28 07:37 | 67.58947 | 167.34751 | 40048 ft | 501 kts | 300° |
| 2026-04-28 07:38 | 67.62381 | 167.19028 | 40054 ft | 501 kts | 300° |
| 2026-04-28 07:38 | 67.65832 | 167.03109 | 40049 ft | 501 kts | 300° |
| 2026-04-28 07:39 | 67.69265 | 166.87155 | 40050 ft | 501 kts | 300° |
| 2026-04-28 07:39 | 67.72683 | 166.71145 | 40055 ft | 501 kts | 300° |
| 2026-04-28 07:40 | 67.76089 | 166.55069 | 40053 ft | 502 kts | 300° |
| 2026-04-28 07:40 | 67.79484 | 166.38922 | 40054 ft | 502 kts | 300° |
| 2026-04-28 07:41 | 67.82840 | 166.22846 | 40057 ft | 503 kts | 299° |
| 2026-04-28 07:41 | 67.86213 | 166.06602 | 40049 ft | 502 kts | 299° |
| 2026-04-28 07:42 | 67.89586 | 165.90340 | 40051 ft | 503 kts | 299° |
| 2026-04-28 07:42 | 67.92939 | 165.74058 | 40052 ft | 502 kts | 299° |
| 2026-04-28 07:43 | 67.96280 | 165.57700 | 40051 ft | 503 kts | 299° |
| 2026-04-28 07:43 | 67.99604 | 165.41297 | 40048 ft | 502 kts | 298° |
| 2026-04-28 07:44 | 68.02907 | 165.24863 | 40045 ft | 502 kts | 298° |
| 2026-04-28 07:44 | 68.06193 | 165.08389 | 40045 ft | 502 kts | 298° |
| 2026-04-28 07:45 | 68.09463 | 164.91870 | 40046 ft | 502 kts | 298° |
| 2026-04-28 07:45 | 68.12698 | 164.75397 | 40038 ft | 502 kts | 298° |
| 2026-04-28 07:46 | 68.15943 | 164.58777 | 40040 ft | 502 kts | 298° |
| 2026-04-28 07:46 | 68.19168 | 164.42151 | 40041 ft | 502 kts | 298° |
| 2026-04-28 07:47 | 68.22385 | 164.25416 | 40039 ft | 502 kts | 297° |
| 2026-04-28 07:47 | 68.25564 | 164.08663 | 40041 ft | 502 kts | 297° |
| 2026-04-28 07:48 | 68.28710 | 163.91939 | 40038 ft | 502 kts | 297° |
| 2026-04-28 07:48 | 68.31851 | 163.75112 | 40034 ft | 502 kts | 297° |
| 2026-04-28 07:49 | 68.34982 | 163.58208 | 40037 ft | 502 kts | 297° |
| 2026-04-28 07:49 | 68.38098 | 163.41249 | 40040 ft | 502 kts | 296° |
| 2026-04-28 07:50 | 68.41193 | 163.24265 | 40041 ft | 502 kts | 296° |
| 2026-04-28 07:50 | 68.44271 | 163.07227 | 40040 ft | 502 kts | 296° |
| 2026-04-28 07:51 | 68.47311 | 162.90265 | 40042 ft | 502 kts | 296° |
| 2026-04-28 07:51 | 68.50355 | 162.73140 | 40049 ft | 502 kts | 296° |
| 2026-04-28 07:52 | 68.53377 | 162.55988 | 40043 ft | 501 kts | 296° |
| 2026-04-28 07:52 | 68.56384 | 162.38780 | 40049 ft | 502 kts | 295° |
| 2026-04-28 07:53 | 68.59371 | 162.21542 | 40055 ft | 501 kts | 295° |
| 2026-04-28 07:53 | 68.62332 | 162.04228 | 40055 ft | 501 kts | 295° |
| 2026-04-28 07:54 | 68.65250 | 161.86868 | 40058 ft | 501 kts | 295° |
| 2026-04-28 07:54 | 68.68152 | 161.69469 | 40059 ft | 501 kts | 295° |
| 2026-04-28 07:55 | 68.71042 | 161.52025 | 40063 ft | 501 kts | 294° |
| 2026-04-28 07:55 | 68.73898 | 161.34650 | 40069 ft | 501 kts | 294° |
| 2026-04-28 07:56 | 68.76969 | 161.17409 | 40074 ft | 501 kts | 298° |
| 2026-04-28 07:56 | 68.80295 | 161.00479 | 40076 ft | 501 kts | 298° |
| 2026-04-28 07:57 | 68.83590 | 160.83483 | 40083 ft | 501 kts | 298° |
| 2026-04-28 07:57 | 68.86812 | 160.66398 | 40090 ft | 501 kts | 297° |
| 2026-04-28 07:58 | 68.89978 | 160.49333 | 40086 ft | 501 kts | 297° |
| 2026-04-28 07:58 | 68.93134 | 160.32084 | 40094 ft | 501 kts | 296° |
| 2026-04-28 07:59 | 68.96222 | 160.14746 | 40091 ft | 500 kts | 296° |
| 2026-04-28 07:59 | 68.99302 | 159.97301 | 40102 ft | 500 kts | 296° |
| 2026-04-28 08:00 | 69.02364 | 159.79871 | 40107 ft | 500 kts | 296° |
| 2026-04-28 08:00 | 69.05405 | 159.62437 | 40106 ft | 500 kts | 296° |
| 2026-04-28 08:01 | 69.08422 | 159.45004 | 40109 ft | 500 kts | 296° |
| 2026-04-28 08:01 | 69.11431 | 159.27453 | 40120 ft | 500 kts | 295° |
| 2026-04-28 08:02 | 69.14425 | 159.09841 | 40121 ft | 500 kts | 295° |
| 2026-04-28 08:02 | 69.17401 | 158.92181 | 40124 ft | 500 kts | 295° |
| 2026-04-28 08:03 | 69.20356 | 158.74486 | 40132 ft | 500 kts | 295° |
| 2026-04-28 08:03 | 69.23292 | 158.56752 | 40132 ft | 499 kts | 295° |
| 2026-04-28 08:04 | 69.26212 | 158.38959 | 40136 ft | 499 kts | 295° |
| 2026-04-28 08:04 | 69.29110 | 158.21283 | 40137 ft | 499 kts | 295° |
| 2026-04-28 08:05 | 69.32017 | 158.03443 | 40145 ft | 499 kts | 295° |
| 2026-04-28 08:05 | 69.34907 | 157.85540 | 40147 ft | 499 kts | 294° |
| 2026-04-28 08:06 | 69.37772 | 157.67627 | 40152 ft | 499 kts | 294° |
| 2026-04-28 08:06 | 69.40637 | 157.49667 | 40157 ft | 499 kts | 294° |
| 2026-04-28 08:07 | 69.43492 | 157.31684 | 40159 ft | 498 kts | 294° |
| 2026-04-28 08:07 | 69.46302 | 157.13814 | 40160 ft | 498 kts | 294° |
| 2026-04-28 08:08 | 69.49114 | 156.95764 | 40164 ft | 498 kts | 294° |
| 2026-04-28 08:08 | 69.51909 | 156.77648 | 40164 ft | 498 kts | 294° |
| 2026-04-28 08:09 | 69.54214 | 156.62581 | 40168 ft | 498 kts | 293° |
| 2026-04-28 08:09 | 69.56973 | 156.44386 | 40169 ft | 498 kts | 293° |
| 2026-04-28 08:10 | 69.59715 | 156.26140 | 40169 ft | 498 kts | 293° |
| 2026-04-28 08:10 | 69.62435 | 156.07863 | 40170 ft | 498 kts | 293° |
| 2026-04-28 08:11 | 69.65133 | 155.89557 | 40169 ft | 498 kts | 293° |
| 2026-04-28 08:11 | 69.67814 | 155.71188 | 40174 ft | 497 kts | 292° |
| 2026-04-28 08:12 | 69.70474 | 155.52792 | 40176 ft | 497 kts | 292° |
| 2026-04-28 08:12 | 69.73095 | 155.34482 | 40177 ft | 497 kts | 292° |
| 2026-04-28 08:13 | 69.75718 | 155.15985 | 40182 ft | 498 kts | 292° |
| 2026-04-28 08:13 | 69.78321 | 154.97439 | 40184 ft | 498 kts | 292° |
| 2026-04-28 08:14 | 69.80907 | 154.78837 | 40185 ft | 498 kts | 292° |
| 2026-04-28 08:14 | 69.83482 | 154.60222 | 40186 ft | 498 kts | 292° |
| 2026-04-28 08:15 | 69.86048 | 154.41583 | 40189 ft | 497 kts | 291° |
| 2026-04-28 08:15 | 69.88592 | 154.22921 | 40191 ft | 497 kts | 291° |
| 2026-04-28 08:16 | 69.91118 | 154.04172 | 40191 ft | 497 kts | 291° |
| 2026-04-28 08:16 | 69.93606 | 153.85510 | 40192 ft | 497 kts | 291° |
| 2026-04-28 08:17 | 69.96090 | 153.66687 | 40198 ft | 498 kts | 291° |
| 2026-04-28 08:17 | 69.98556 | 153.47803 | 40196 ft | 498 kts | 291° |
| 2026-04-28 08:18 | 70.01003 | 153.28871 | 40202 ft | 498 kts | 291° |
| 2026-04-28 08:18 | 70.03430 | 153.09887 | 40200 ft | 498 kts | 290° |
| 2026-04-28 08:19 | 70.05838 | 152.90853 | 40208 ft | 498 kts | 290° |
| 2026-04-28 08:19 | 70.08223 | 152.71798 | 40205 ft | 498 kts | 290° |
| 2026-04-28 08:20 | 70.10571 | 152.52834 | 40205 ft | 498 kts | 290° |
| 2026-04-28 08:20 | 70.12916 | 152.33682 | 40207 ft | 498 kts | 290° |
| 2026-04-28 08:21 | 70.15273 | 152.14560 | 40205 ft | 498 kts | 291° |
| 2026-04-28 08:21 | 70.17696 | 151.95460 | 40207 ft | 498 kts | 291° |
| 2026-04-28 08:22 | 70.20100 | 151.76337 | 40213 ft | 498 kts | 290° |
| 2026-04-28 08:22 | 70.22473 | 151.57150 | 40211 ft | 497 kts | 290° |
| 2026-04-28 08:23 | 70.24817 | 151.37920 | 40212 ft | 497 kts | 290° |
| 2026-04-28 08:23 | 70.27137 | 151.18667 | 40217 ft | 497 kts | 290° |
| 2026-04-28 08:24 | 70.29439 | 150.99362 | 40217 ft | 497 kts | 290° |
| 2026-04-28 08:24 | 70.31720 | 150.80010 | 40216 ft | 497 kts | 289° |
| 2026-04-28 08:25 | 70.33977 | 150.60635 | 40217 ft | 497 kts | 289° |
| 2026-04-28 08:26 | 70.37312 | 150.31621 | 40222 ft | 497 kts | 289° |
| 2026-04-28 08:26 | 70.39519 | 150.12132 | 40220 ft | 497 kts | 289° |
| 2026-04-28 08:27 | 70.41706 | 149.92591 | 40220 ft | 497 kts | 289° |
| 2026-04-28 08:27 | 70.43871 | 149.73024 | 40218 ft | 497 kts | 289° |
| 2026-04-28 08:28 | 70.46016 | 149.53399 | 40215 ft | 496 kts | 289° |
| 2026-04-28 08:28 | 70.48132 | 149.33759 | 40218 ft | 496 kts | 288° |
| 2026-04-28 08:29 | 70.50191 | 149.14039 | 40211 ft | 497 kts | 288° |
| 2026-04-28 08:29 | 70.52223 | 148.94262 | 40212 ft | 497 kts | 288° |
| 2026-04-28 08:30 | 70.54236 | 148.74488 | 40207 ft | 497 kts | 288° |
| 2026-04-28 08:30 | 70.56233 | 148.54653 | 40202 ft | 497 kts | 288° |
| 2026-04-28 08:31 | 70.58209 | 148.34782 | 40204 ft | 496 kts | 287° |
| 2026-04-28 08:31 | 70.60163 | 148.14887 | 40198 ft | 497 kts | 287° |
| 2026-04-28 08:32 | 70.62085 | 147.95050 | 40197 ft | 496 kts | 287° |
| 2026-04-28 08:32 | 70.64032 | 147.75115 | 40197 ft | 496 kts | 288° |
| 2026-04-28 08:33 | 70.66044 | 147.55215 | 40196 ft | 496 kts | 288° |
| 2026-04-28 08:33 | 70.68041 | 147.35257 | 40195 ft | 496 kts | 288° |
| 2026-04-28 08:34 | 70.70001 | 147.15277 | 40190 ft | 496 kts | 287° |
| 2026-04-28 08:34 | 70.71930 | 146.95252 | 40192 ft | 496 kts | 287° |
| 2026-04-28 08:35 | 70.73836 | 146.75186 | 40189 ft | 496 kts | 287° |
| 2026-04-28 08:35 | 70.75722 | 146.55081 | 40188 ft | 496 kts | 287° |
| 2026-04-28 08:36 | 70.77585 | 146.34944 | 40184 ft | 496 kts | 287° |
| 2026-04-28 08:36 | 70.79404 | 146.14887 | 40184 ft | 496 kts | 286° |
| 2026-04-28 08:37 | 70.81189 | 145.94523 | 40180 ft | 496 kts | 286° |
| 2026-04-28 08:37 | 70.82940 | 145.74257 | 40177 ft | 495 kts | 285° |
| 2026-04-28 08:38 | 70.84677 | 145.53940 | 40176 ft | 495 kts | 285° |
| 2026-04-28 08:38 | 70.86381 | 145.33748 | 40173 ft | 495 kts | 285° |
| 2026-04-28 08:39 | 70.88074 | 145.13396 | 40167 ft | 495 kts | 285° |
| 2026-04-28 08:39 | 70.89741 | 144.93038 | 40169 ft | 495 kts | 285° |
| 2026-04-28 08:40 | 70.91387 | 144.72623 | 40160 ft | 495 kts | 285° |
| 2026-04-28 08:40 | 70.93010 | 144.52190 | 40158 ft | 495 kts | 284° |
| 2026-04-28 08:41 | 70.94612 | 144.31708 | 40153 ft | 495 kts | 284° |
| 2026-04-28 08:41 | 70.96191 | 144.11188 | 40156 ft | 495 kts | 284° |
| 2026-04-28 08:42 | 70.97745 | 143.90669 | 40152 ft | 494 kts | 284° |
| 2026-04-28 08:42 | 70.99275 | 143.70259 | 40143 ft | 494 kts | 284° |
| 2026-04-28 08:43 | 71.00865 | 143.49749 | 40150 ft | 494 kts | 284° |
| 2026-04-28 08:43 | 71.02449 | 143.29239 | 40145 ft | 494 kts | 284° |
| 2026-04-28 08:44 | 71.04003 | 143.08649 | 40140 ft | 494 kts | 284° |
| 2026-04-28 08:44 | 71.05528 | 142.88019 | 40134 ft | 494 kts | 284° |
| 2026-04-28 08:45 | 71.07027 | 142.67383 | 40136 ft | 494 kts | 283° |
| 2026-04-28 08:45 | 71.08505 | 142.46700 | 40130 ft | 494 kts | 283° |
| 2026-04-28 08:46 | 71.09959 | 142.26007 | 40117 ft | 494 kts | 283° |
| 2026-04-28 08:46 | 71.11378 | 142.05435 | 40116 ft | 494 kts | 283° |
| 2026-04-28 08:47 | 71.12786 | 141.84691 | 40118 ft | 494 kts | 283° |
| 2026-04-28 08:47 | 71.14170 | 141.63922 | 40105 ft | 493 kts | 283° |
| 2026-04-28 08:48 | 71.15532 | 141.43109 | 40098 ft | 494 kts | 282° |
| 2026-04-28 08:48 | 71.16869 | 141.22283 | 40109 ft | 493 kts | 282° |
| 2026-04-28 08:49 | 71.18184 | 141.01415 | 40096 ft | 493 kts | 282° |
| 2026-04-28 08:49 | 71.19468 | 140.80667 | 40089 ft | 493 kts | 282° |
| 2026-04-28 08:50 | 71.20735 | 140.59786 | 40087 ft | 493 kts | 282° |
| 2026-04-28 08:50 | 71.21980 | 140.38859 | 40078 ft | 493 kts | 282° |
| 2026-04-28 08:51 | 71.23198 | 140.17954 | 40076 ft | 492 kts | 281° |
| 2026-04-28 08:51 | 71.24395 | 139.96981 | 40070 ft | 492 kts | 281° |
| 2026-04-28 08:52 | 71.25567 | 139.76013 | 40068 ft | 492 kts | 281° |
| 2026-04-28 08:52 | 71.26707 | 139.55177 | 40060 ft | 492 kts | 281° |
| 2026-04-28 08:53 | 71.27833 | 139.34149 | 40054 ft | 492 kts | 281° |
| 2026-04-28 08:53 | 71.28934 | 139.13116 | 40055 ft | 492 kts | 281° |
| 2026-04-28 08:54 | 71.30000 | 138.92079 | 40048 ft | 492 kts | 281° |
| 2026-04-28 08:54 | 71.31036 | 138.71006 | 40043 ft | 492 kts | 280° |
| 2026-04-28 08:55 | 71.32051 | 138.49907 | 40042 ft | 492 kts | 280° |
| 2026-04-28 08:55 | 71.33043 | 138.28777 | 40040 ft | 492 kts | 280° |
| 2026-04-28 08:56 | 71.34013 | 138.07630 | 40035 ft | 492 kts | 279° |
| 2026-04-28 08:56 | 71.34954 | 137.86578 | 40036 ft | 492 kts | 279° |
| 2026-04-28 08:57 | 71.35876 | 137.65397 | 40034 ft | 492 kts | 279° |
| 2026-04-28 08:57 | 71.36629 | 137.47654 | 40033 ft | 492 kts | 279° |
| 2026-04-28 08:58 | 71.37503 | 137.26562 | 40027 ft | 492 kts | 279° |
| 2026-04-28 08:58 | 71.38358 | 137.05314 | 40027 ft | 492 kts | 278° |
| 2026-04-28 08:59 | 71.39188 | 136.84060 | 40020 ft | 492 kts | 278° |
| 2026-04-28 08:59 | 71.39995 | 136.62803 | 40021 ft | 492 kts | 278° |
| 2026-04-28 09:00 | 71.40777 | 136.41510 | 40021 ft | 492 kts | 278° |
| 2026-04-28 09:00 | 71.41536 | 136.20206 | 40017 ft | 492 kts | 278° |
| 2026-04-28 09:01 | 71.42391 | 135.98954 | 40011 ft | 491 kts | 281° |
| 2026-04-28 09:01 | 71.43605 | 135.77899 | 40010 ft | 490 kts | 282° |
| 2026-04-28 09:02 | 71.44830 | 135.56833 | 40008 ft | 490 kts | 282° |
| 2026-04-28 09:02 | 71.45970 | 135.35727 | 40009 ft | 490 kts | 281° |
| 2026-04-28 09:03 | 71.47053 | 135.14573 | 40006 ft | 490 kts | 281° |
| 2026-04-28 09:03 | 71.48107 | 134.93404 | 40003 ft | 490 kts | 281° |
| 2026-04-28 09:04 | 71.49140 | 134.72196 | 40000 ft | 490 kts | 281° |
| 2026-04-28 09:04 | 71.50145 | 134.51105 | 39998 ft | 490 kts | 280° |
| 2026-04-28 09:05 | 71.51129 | 134.29941 | 39995 ft | 490 kts | 280° |
| 2026-04-28 09:05 | 71.52120 | 134.08717 | 39992 ft | 489 kts | 281° |
| 2026-04-28 09:06 | 71.53126 | 133.87506 | 39990 ft | 489 kts | 281° |
| 2026-04-28 09:06 | 71.54111 | 133.66255 | 39990 ft | 489 kts | 280° |
| 2026-04-28 09:07 | 71.55063 | 133.45018 | 39986 ft | 489 kts | 280° |
| 2026-04-28 09:07 | 71.55989 | 133.23773 | 39981 ft | 489 kts | 280° |
| 2026-04-28 09:08 | 71.56885 | 133.02634 | 39980 ft | 488 kts | 279° |
| 2026-04-28 09:08 | 71.57764 | 132.81354 | 39977 ft | 488 kts | 279° |
| 2026-04-28 09:09 | 71.58618 | 132.60042 | 39972 ft | 488 kts | 279° |
| 2026-04-28 09:09 | 71.59449 | 132.38714 | 39967 ft | 488 kts | 279° |
| 2026-04-28 09:10 | 71.60257 | 132.17371 | 39961 ft | 488 kts | 279° |
| 2026-04-28 09:10 | 71.61039 | 131.96031 | 39957 ft | 488 kts | 279° |
| 2026-04-28 09:11 | 71.61798 | 131.74682 | 39957 ft | 488 kts | 278° |
| 2026-04-28 09:11 | 71.62533 | 131.53306 | 39956 ft | 488 kts | 278° |
| 2026-04-28 09:12 | 71.63243 | 131.31938 | 39952 ft | 488 kts | 278° |
| 2026-04-28 09:12 | 71.63931 | 131.10530 | 39950 ft | 488 kts | 278° |
| 2026-04-28 09:13 | 71.64589 | 130.89282 | 39946 ft | 487 kts | 278° |
| 2026-04-28 09:13 | 71.65228 | 130.67867 | 39944 ft | 487 kts | 277° |
| 2026-04-28 09:14 | 71.65843 | 130.46433 | 39944 ft | 487 kts | 277° |
| 2026-04-28 09:14 | 71.66437 | 130.25006 | 39939 ft | 487 kts | 277° |
| 2026-04-28 09:15 | 71.67006 | 130.03592 | 39944 ft | 487 kts | 277° |
| 2026-04-28 09:15 | 71.67548 | 129.82111 | 39940 ft | 487 kts | 277° |
| 2026-04-28 09:16 | 71.68065 | 129.60645 | 39940 ft | 487 kts | 276° |
| 2026-04-28 09:16 | 71.68562 | 129.39123 | 39939 ft | 488 kts | 276° |
| 2026-04-28 09:17 | 71.69034 | 129.17604 | 39937 ft | 488 kts | 276° |
| 2026-04-28 09:17 | 71.69699 | 128.96325 | 39935 ft | 485 kts | 284° |
| 2026-04-28 09:18 | 71.71917 | 128.76313 | 39932 ft | 479 kts | 298° |
| 2026-04-28 09:18 | 71.74933 | 128.57357 | 39927 ft | 480 kts | 300° |
| 2026-04-28 09:19 | 71.78041 | 128.38511 | 39923 ft | 480 kts | 300° |
| 2026-04-28 09:19 | 71.81126 | 128.19577 | 39919 ft | 480 kts | 299° |
| 2026-04-28 09:20 | 71.84170 | 128.00565 | 39909 ft | 479 kts | 299° |
| 2026-04-28 09:20 | 71.87188 | 127.81480 | 39905 ft | 479 kts | 298° |
| 2026-04-28 09:21 | 71.90183 | 127.62352 | 39895 ft | 479 kts | 298° |
| 2026-04-28 09:21 | 71.93162 | 127.43160 | 39892 ft | 479 kts | 298° |
| 2026-04-28 09:22 | 71.96095 | 127.24066 | 39894 ft | 479 kts | 298° |
| 2026-04-28 09:22 | 71.99033 | 127.04767 | 39894 ft | 478 kts | 298° |
| 2026-04-28 09:23 | 72.01951 | 126.85416 | 39890 ft | 478 kts | 297° |
| 2026-04-28 09:23 | 72.04845 | 126.66034 | 39881 ft | 478 kts | 297° |
| 2026-04-28 09:24 | 72.07722 | 126.46569 | 39874 ft | 478 kts | 297° |
| 2026-04-28 09:24 | 72.10577 | 126.27071 | 39873 ft | 478 kts | 297° |
| 2026-04-28 09:25 | 72.13414 | 126.07499 | 39873 ft | 478 kts | 297° |
| 2026-04-28 09:25 | 72.16230 | 125.87876 | 39868 ft | 478 kts | 296° |
| 2026-04-28 09:26 | 72.19028 | 125.68182 | 39865 ft | 478 kts | 296° |
| 2026-04-28 09:26 | 72.21803 | 125.48456 | 39858 ft | 477 kts | 296° |
| 2026-04-28 09:27 | 72.25923 | 125.18786 | 39853 ft | 477 kts | 296° |
| 2026-04-28 09:27 | 72.28647 | 124.98915 | 39843 ft | 477 kts | 295° |
| 2026-04-28 09:28 | 72.31351 | 124.78992 | 39838 ft | 477 kts | 295° |
| 2026-04-28 09:28 | 72.34014 | 124.59154 | 39833 ft | 477 kts | 295° |
| 2026-04-28 09:29 | 72.36676 | 124.39123 | 39838 ft | 477 kts | 295° |
| 2026-04-28 09:29 | 72.39317 | 124.19043 | 39831 ft | 477 kts | 295° |
| 2026-04-28 09:30 | 72.41941 | 123.98873 | 39829 ft | 477 kts | 294° |
| 2026-04-28 09:30 | 72.44539 | 123.78690 | 39822 ft | 477 kts | 294° |
| 2026-04-28 09:31 | 72.47116 | 123.58452 | 39815 ft | 477 kts | 294° |
| 2026-04-28 09:31 | 72.49674 | 123.38142 | 39813 ft | 477 kts | 294° |
| 2026-04-28 09:32 | 72.52211 | 123.17778 | 39813 ft | 476 kts | 293° |
| 2026-04-28 09:32 | 72.54722 | 122.97403 | 39809 ft | 476 kts | 293° |
| 2026-04-28 09:33 | 72.57197 | 122.77093 | 39793 ft | 475 kts | 293° |
| 2026-04-28 09:33 | 72.59664 | 122.56624 | 39792 ft | 475 kts | 293° |
| 2026-04-28 09:34 | 72.62107 | 122.36128 | 39789 ft | 475 kts | 292° |
| 2026-04-28 09:34 | 72.64534 | 122.15531 | 39786 ft | 475 kts | 292° |
| 2026-04-28 09:35 | 72.66934 | 121.94929 | 39776 ft | 474 kts | 292° |
| 2026-04-28 09:35 | 72.69310 | 121.74301 | 39767 ft | 474 kts | 292° |
| 2026-04-28 09:36 | 72.71665 | 121.53608 | 39766 ft | 474 kts | 291° |
| 2026-04-28 09:36 | 72.73999 | 121.32860 | 39762 ft | 474 kts | 291° |
| 2026-04-28 09:37 | 72.76309 | 121.12083 | 39757 ft | 474 kts | 291° |
| 2026-04-28 09:37 | 72.78599 | 120.91233 | 39747 ft | 473 kts | 291° |
| 2026-04-28 09:38 | 72.80865 | 120.70359 | 39746 ft | 473 kts | 291° |
| 2026-04-28 09:38 | 72.83111 | 120.49429 | 39738 ft | 473 kts | 290° |
| 2026-04-28 09:39 | 72.85333 | 120.28453 | 39730 ft | 473 kts | 290° |
| 2026-04-28 09:39 | 72.87533 | 120.07430 | 39724 ft | 473 kts | 290° |
| 2026-04-28 09:40 | 72.89695 | 119.86517 | 39722 ft | 473 kts | 290° |
| 2026-04-28 09:40 | 72.91854 | 119.65365 | 39714 ft | 473 kts | 289° |
| 2026-04-28 09:41 | 72.93991 | 119.44168 | 39711 ft | 474 kts | 289° |
| 2026-04-28 09:41 | 72.96110 | 119.22877 | 39710 ft | 474 kts | 289° |
| 2026-04-28 09:42 | 72.98208 | 119.01522 | 39702 ft | 475 kts | 289° |
| 2026-04-28 09:42 | 73.00284 | 118.80113 | 39701 ft | 475 kts | 288° |
| 2026-04-28 09:43 | 73.02339 | 118.58647 | 39690 ft | 475 kts | 288° |
| 2026-04-28 09:43 | 73.04373 | 118.37105 | 39685 ft | 476 kts | 288° |
| 2026-04-28 09:44 | 73.06384 | 118.15510 | 39679 ft | 476 kts | 288° |
| 2026-04-28 09:44 | 73.08375 | 117.93847 | 39675 ft | 476 kts | 287° |
| 2026-04-28 09:45 | 73.10012 | 117.75808 | 39670 ft | 476 kts | 287° |
| 2026-04-28 09:45 | 73.11964 | 117.54020 | 39665 ft | 476 kts | 287° |
| 2026-04-28 09:46 | 73.13891 | 117.32198 | 39658 ft | 477 kts | 287° |
| 2026-04-28 09:46 | 73.15797 | 117.10308 | 39654 ft | 477 kts | 286° |
| 2026-04-28 09:47 | 73.17680 | 116.88369 | 39645 ft | 477 kts | 286° |
| 2026-04-28 09:47 | 73.19544 | 116.66331 | 39643 ft | 478 kts | 286° |
| 2026-04-28 09:48 | 73.21384 | 116.44257 | 39634 ft | 478 kts | 285° |
| 2026-04-28 09:48 | 73.23201 | 116.22121 | 39627 ft | 478 kts | 285° |
| 2026-04-28 09:49 | 73.24992 | 115.99970 | 39619 ft | 478 kts | 285° |
| 2026-04-28 09:49 | 73.26755 | 115.77817 | 39617 ft | 478 kts | 285° |
| 2026-04-28 09:50 | 73.28502 | 115.55542 | 39605 ft | 479 kts | 284° |
| 2026-04-28 09:50 | 73.30229 | 115.33156 | 39602 ft | 479 kts | 284° |
| 2026-04-28 09:51 | 73.31932 | 115.10727 | 39598 ft | 479 kts | 284° |
| 2026-04-28 09:51 | 73.33612 | 114.88250 | 39593 ft | 480 kts | 284° |
| 2026-04-28 09:52 | 73.35269 | 114.65702 | 39589 ft | 480 kts | 283° |
| 2026-04-28 09:52 | 73.36900 | 114.43122 | 39580 ft | 480 kts | 283° |
| 2026-04-28 09:53 | 73.38509 | 114.20497 | 39568 ft | 480 kts | 283° |
| 2026-04-28 09:53 | 73.40084 | 113.97955 | 39569 ft | 481 kts | 283° |
| 2026-04-28 09:54 | 73.41751 | 113.75166 | 39569 ft | 481 kts | 284° |
| 2026-04-28 09:54 | 73.43437 | 113.52487 | 39554 ft | 481 kts | 283° |
| 2026-04-28 09:55 | 73.45085 | 113.29759 | 39560 ft | 481 kts | 283° |
| 2026-04-28 09:55 | 73.46687 | 113.07115 | 39553 ft | 481 kts | 283° |
| 2026-04-28 09:56 | 73.48271 | 112.84261 | 39543 ft | 482 kts | 283° |
| 2026-04-28 09:56 | 73.49833 | 112.61331 | 39545 ft | 482 kts | 282° |
| 2026-04-28 09:57 | 73.51369 | 112.38389 | 39534 ft | 482 kts | 282° |
| 2026-04-28 09:57 | 73.52881 | 112.15378 | 39540 ft | 482 kts | 282° |
| 2026-04-28 09:58 | 73.54369 | 111.92311 | 39536 ft | 482 kts | 282° |
| 2026-04-28 09:58 | 73.55830 | 111.69221 | 39526 ft | 482 kts | 281° |
| 2026-04-28 09:59 | 73.57269 | 111.46072 | 39523 ft | 483 kts | 281° |
| 2026-04-28 09:59 | 73.58681 | 111.22883 | 39518 ft | 483 kts | 281° |
| 2026-04-28 10:00 | 73.60068 | 110.99631 | 39520 ft | 483 kts | 281° |
| 2026-04-28 10:00 | 73.61432 | 110.76322 | 39512 ft | 483 kts | 280° |
| 2026-04-28 10:01 | 73.62770 | 110.52975 | 39518 ft | 483 kts | 280° |
| 2026-04-28 10:01 | 73.64074 | 110.29726 | 39520 ft | 484 kts | 280° |
| 2026-04-28 10:02 | 73.65360 | 110.06337 | 39508 ft | 484 kts | 279° |
| 2026-04-28 10:02 | 73.66627 | 109.82794 | 39508 ft | 484 kts | 279° |
| 2026-04-28 10:03 | 73.67864 | 109.59245 | 39511 ft | 485 kts | 279° |
| 2026-04-28 10:03 | 73.69075 | 109.35637 | 39503 ft | 485 kts | 279° |
| 2026-04-28 10:04 | 73.70262 | 109.11993 | 39503 ft | 485 kts | 279° |
| 2026-04-28 10:04 | 73.71423 | 108.88308 | 39497 ft | 485 kts | 278° |
| 2026-04-28 10:05 | 73.72557 | 108.64610 | 39493 ft | 486 kts | 278° |
| 2026-04-28 10:05 | 73.73659 | 108.40989 | 39497 ft | 486 kts | 278° |
| 2026-04-28 10:06 | 73.74742 | 108.17168 | 39490 ft | 486 kts | 278° |
| 2026-04-28 10:06 | 73.75799 | 107.93317 | 39486 ft | 486 kts | 278° |
| 2026-04-28 10:07 | 73.76829 | 107.69444 | 39493 ft | 486 kts | 278° |
| 2026-04-28 10:07 | 73.77833 | 107.45544 | 39478 ft | 486 kts | 277° |
| 2026-04-28 10:08 | 73.78810 | 107.21590 | 39480 ft | 486 kts | 277° |
| 2026-04-28 10:08 | 73.79759 | 106.97619 | 39476 ft | 486 kts | 277° |
| 2026-04-28 10:09 | 73.80682 | 106.73615 | 39471 ft | 487 kts | 277° |
| 2026-04-28 10:09 | 73.81580 | 106.49552 | 39477 ft | 487 kts | 276° |
| 2026-04-28 10:10 | 73.82445 | 106.25630 | 39470 ft | 487 kts | 276° |
| 2026-04-28 10:10 | 73.83286 | 106.01568 | 39461 ft | 486 kts | 276° |
| 2026-04-28 10:11 | 73.84101 | 105.77456 | 39470 ft | 486 kts | 276° |
| 2026-04-28 10:11 | 73.84890 | 105.53331 | 39465 ft | 486 kts | 276° |
| 2026-04-28 10:12 | 73.85650 | 105.29186 | 39454 ft | 486 kts | 275° |
| 2026-04-28 10:12 | 73.86382 | 105.05045 | 39456 ft | 486 kts | 275° |
| 2026-04-28 10:13 | 73.87088 | 104.80855 | 39452 ft | 486 kts | 275° |
| 2026-04-28 10:13 | 73.87766 | 104.56658 | 39448 ft | 486 kts | 275° |
| 2026-04-28 10:14 | 73.88413 | 104.32612 | 39448 ft | 485 kts | 275° |
| 2026-04-28 10:14 | 73.89036 | 104.08453 | 39453 ft | 485 kts | 274° |
| 2026-04-28 10:15 | 73.89632 | 103.84258 | 39451 ft | 484 kts | 274° |
| 2026-04-28 10:15 | 73.90200 | 103.60090 | 39452 ft | 484 kts | 274° |
| 2026-04-28 10:16 | 73.90739 | 103.35937 | 39446 ft | 483 kts | 274° |
| 2026-04-28 10:16 | 73.91252 | 103.11773 | 39447 ft | 483 kts | 274° |
| 2026-04-28 10:17 | 73.91736 | 102.87620 | 39436 ft | 483 kts | 274° |
| 2026-04-28 10:17 | 73.92193 | 102.63478 | 39447 ft | 482 kts | 273° |
| 2026-04-28 10:18 | 73.92622 | 102.39323 | 39439 ft | 482 kts | 273° |
| 2026-04-28 10:18 | 73.93025 | 102.15217 | 39439 ft | 481 kts | 273° |
| 2026-04-28 10:19 | 73.93398 | 101.91240 | 39427 ft | 481 kts | 273° |
| 2026-04-28 10:19 | 73.93745 | 101.67142 | 39438 ft | 480 kts | 272° |
| 2026-04-28 10:20 | 73.94065 | 101.43022 | 39442 ft | 481 kts | 272° |
| 2026-04-28 10:20 | 73.94359 | 101.18876 | 39438 ft | 481 kts | 272° |
| 2026-04-28 10:21 | 73.94626 | 100.94739 | 39438 ft | 481 kts | 272° |
| 2026-04-28 10:21 | 73.94866 | 100.70616 | 39437 ft | 480 kts | 272° |
| 2026-04-28 10:22 | 73.95077 | 100.46659 | 39450 ft | 480 kts | 271° |
| 2026-04-28 10:22 | 73.95263 | 100.22514 | 39440 ft | 480 kts | 271° |
| 2026-04-28 10:23 | 73.95421 | 99.98370 | 39452 ft | 480 kts | 271° |
| 2026-04-28 10:23 | 73.95553 | 99.74228 | 39441 ft | 480 kts | 271° |
| 2026-04-28 10:24 | 73.95658 | 99.50111 | 39456 ft | 480 kts | 271° |
| 2026-04-28 10:24 | 73.95736 | 99.26032 | 39451 ft | 479 kts | 270° |
| 2026-04-28 10:25 | 73.95787 | 99.01926 | 39455 ft | 479 kts | 270° |
| 2026-04-28 10:25 | 73.95810 | 98.77865 | 39456 ft | 479 kts | 270° |
| 2026-04-28 10:26 | 73.95806 | 98.53761 | 39462 ft | 479 kts | 270° |
| 2026-04-28 10:26 | 73.95776 | 98.29687 | 39453 ft | 478 kts | 269° |
| 2026-04-28 10:27 | 73.95720 | 98.05817 | 39464 ft | 478 kts | 269° |
| 2026-04-28 10:27 | 73.95637 | 97.81778 | 39460 ft | 478 kts | 269° |
| 2026-04-28 10:28 | 73.95527 | 97.57750 | 39466 ft | 478 kts | 269° |
| 2026-04-28 10:29 | 73.95312 | 97.21731 | 39468 ft | 478 kts | 268° |
| 2026-04-28 10:29 | 73.95135 | 96.97720 | 39472 ft | 477 kts | 268° |
| 2026-04-28 10:30 | 73.94931 | 96.73760 | 39474 ft | 477 kts | 268° |
| 2026-04-28 10:30 | 73.94701 | 96.49784 | 39467 ft | 477 kts | 268° |
| 2026-04-28 10:31 | 73.94445 | 96.25868 | 39469 ft | 476 kts | 267° |
| 2026-04-28 10:31 | 73.94162 | 96.01980 | 39481 ft | 476 kts | 267° |
| 2026-04-28 10:32 | 73.93854 | 95.78139 | 39474 ft | 475 kts | 267° |
| 2026-04-28 10:32 | 73.93519 | 95.54299 | 39482 ft | 475 kts | 266° |
| 2026-04-28 10:33 | 73.93155 | 95.30503 | 39486 ft | 475 kts | 266° |
| 2026-04-28 10:33 | 73.92668 | 95.06865 | 39479 ft | 474 kts | 265° |
| 2026-04-28 10:34 | 73.92109 | 94.83157 | 39481 ft | 474 kts | 265° |
| 2026-04-28 10:34 | 73.91634 | 94.63399 | 39492 ft | 475 kts | 265° |
| 2026-04-28 10:35 | 73.91054 | 94.39704 | 39502 ft | 475 kts | 264° |
| 2026-04-28 10:35 | 73.90451 | 94.15996 | 39507 ft | 475 kts | 264° |
| 2026-04-28 10:36 | 73.89824 | 93.92336 | 39507 ft | 475 kts | 264° |
| 2026-04-28 10:36 | 73.89169 | 93.68690 | 39520 ft | 474 kts | 264° |
| 2026-04-28 10:37 | 73.88487 | 93.45060 | 39520 ft | 475 kts | 264° |
| 2026-04-28 10:37 | 73.87781 | 93.21462 | 39531 ft | 474 kts | 263° |
| 2026-04-28 10:38 | 73.87048 | 92.97877 | 39537 ft | 474 kts | 263° |
| 2026-04-28 10:38 | 73.86290 | 92.74340 | 39544 ft | 474 kts | 263° |
| 2026-04-28 10:39 | 73.85505 | 92.50814 | 39549 ft | 474 kts | 263° |
| 2026-04-28 10:39 | 73.84701 | 92.27460 | 39562 ft | 474 kts | 262° |
| 2026-04-28 10:40 | 73.83867 | 92.03994 | 39568 ft | 474 kts | 262° |
| 2026-04-28 10:40 | 73.83005 | 91.80547 | 39580 ft | 474 kts | 262° |
| 2026-04-28 10:41 | 73.82120 | 91.57144 | 39580 ft | 474 kts | 262° |
| 2026-04-28 10:41 | 73.81208 | 91.33750 | 39592 ft | 473 kts | 261° |
| 2026-04-28 10:42 | 73.80271 | 91.10397 | 39605 ft | 473 kts | 261° |
| 2026-04-28 10:42 | 73.79309 | 90.87086 | 39613 ft | 473 kts | 261° |
| 2026-04-28 10:43 | 73.78322 | 90.63793 | 39619 ft | 473 kts | 261° |
| 2026-04-28 10:43 | 73.77309 | 90.40520 | 39627 ft | 473 kts | 260° |
| 2026-04-28 10:44 | 73.76274 | 90.17311 | 39632 ft | 473 kts | 260° |
| 2026-04-28 10:44 | 73.75208 | 89.94138 | 39623 ft | 473 kts | 262° |
| 2026-04-28 10:45 | 73.74110 | 89.70818 | 39656 ft | 480 kts | 262° |
| 2026-04-28 10:45 | 73.72978 | 89.47201 | 39664 ft | 484 kts | 261° |
| 2026-04-28 10:46 | 73.71826 | 89.23747 | 39668 ft | 484 kts | 261° |
| 2026-04-28 10:46 | 73.70697 | 89.00132 | 39678 ft | 483 kts | 261° |
| 2026-04-28 10:47 | 73.69890 | 88.83278 | 39686 ft | 483 kts | 261° |
| 2026-04-28 10:47 | 73.68727 | 88.59586 | 39700 ft | 488 kts | 261° |
| 2026-04-28 10:48 | 73.67519 | 88.35707 | 39706 ft | 493 kts | 261° |
| 2026-04-28 10:48 | 73.66279 | 88.11742 | 39714 ft | 495 kts | 261° |
| 2026-04-28 10:49 | 73.65002 | 87.87671 | 39721 ft | 496 kts | 260° |
| 2026-04-28 10:49 | 73.63693 | 87.63645 | 39734 ft | 496 kts | 260° |
| 2026-04-28 10:50 | 73.62361 | 87.39665 | 39738 ft | 496 kts | 260° |
| 2026-04-28 10:50 | 73.61009 | 87.15855 | 39750 ft | 496 kts | 260° |
| 2026-04-28 10:51 | 73.59623 | 86.91933 | 39762 ft | 496 kts | 259° |
| 2026-04-28 10:51 | 73.58211 | 86.68047 | 39769 ft | 496 kts | 259° |
| 2026-04-28 10:52 | 73.56771 | 86.44206 | 39777 ft | 496 kts | 259° |
| 2026-04-28 10:52 | 73.55304 | 86.20437 | 39792 ft | 496 kts | 259° |
| 2026-04-28 10:53 | 73.53810 | 85.96699 | 39795 ft | 495 kts | 258° |
| 2026-04-28 10:53 | 73.52291 | 85.73015 | 39807 ft | 495 kts | 258° |
| 2026-04-28 10:54 | 73.50748 | 85.49402 | 39818 ft | 495 kts | 258° |
| 2026-04-28 10:54 | 73.49179 | 85.25836 | 39823 ft | 495 kts | 258° |
| 2026-04-28 10:55 | 73.47581 | 85.02278 | 39836 ft | 495 kts | 258° |
| 2026-04-28 10:55 | 73.45970 | 84.78939 | 39842 ft | 495 kts | 257° |
| 2026-04-28 10:56 | 73.44323 | 84.55523 | 39851 ft | 495 kts | 257° |
| 2026-04-28 10:56 | 73.42651 | 84.32125 | 39860 ft | 495 kts | 257° |
| 2026-04-28 10:57 | 73.40950 | 84.08765 | 39864 ft | 495 kts | 257° |
| 2026-04-28 10:57 | 73.39218 | 83.85468 | 39875 ft | 495 kts | 257° |
| 2026-04-28 10:58 | 73.37464 | 83.62218 | 39884 ft | 495 kts | 256° |
| 2026-04-28 10:58 | 73.35683 | 83.38967 | 39888 ft | 496 kts | 256° |
| 2026-04-28 10:59 | 73.33873 | 83.15754 | 39895 ft | 496 kts | 256° |
| 2026-04-28 10:59 | 73.32039 | 82.92588 | 39898 ft | 496 kts | 256° |
| 2026-04-28 11:00 | 73.30192 | 82.69628 | 39905 ft | 496 kts | 256° |
| 2026-04-28 11:00 | 73.28303 | 82.46520 | 39912 ft | 497 kts | 255° |
| 2026-04-28 11:01 | 73.26386 | 82.23457 | 39913 ft | 497 kts | 255° |
| 2026-04-28 11:01 | 73.24447 | 82.00461 | 39915 ft | 497 kts | 255° |
| 2026-04-28 11:02 | 73.22479 | 81.77508 | 39916 ft | 497 kts | 255° |
| 2026-04-28 11:02 | 73.20489 | 81.54617 | 39930 ft | 497 kts | 255° |
| 2026-04-28 11:03 | 73.18472 | 81.31756 | 39931 ft | 497 kts | 254° |
| 2026-04-28 11:03 | 73.16433 | 81.08983 | 39934 ft | 497 kts | 254° |
| 2026-04-28 11:04 | 73.14364 | 80.86216 | 39929 ft | 497 kts | 254° |
| 2026-04-28 11:04 | 73.12270 | 80.63510 | 39944 ft | 497 kts | 253° |
| 2026-04-28 11:05 | 73.10155 | 80.40905 | 39944 ft | 497 kts | 253° |
| 2026-04-28 11:05 | 73.08011 | 80.18298 | 39947 ft | 496 kts | 253° |
| 2026-04-28 11:06 | 73.05846 | 79.95800 | 39955 ft | 496 kts | 253° |
| 2026-04-28 11:06 | 73.03674 | 79.73537 | 39958 ft | 496 kts | 253° |
| 2026-04-28 11:07 | 73.01459 | 79.51119 | 39963 ft | 496 kts | 252° |
| 2026-04-28 11:07 | 72.99225 | 79.28817 | 39967 ft | 496 kts | 252° |
| 2026-04-28 11:08 | 72.96959 | 79.06501 | 39967 ft | 497 kts | 252° |
| 2026-04-28 11:08 | 72.94674 | 78.84301 | 39976 ft | 497 kts | 252° |
| 2026-04-28 11:09 | 72.92362 | 78.62130 | 39982 ft | 497 kts | 251° |
| 2026-04-28 11:09 | 72.90026 | 78.40015 | 39982 ft | 497 kts | 251° |
| 2026-04-28 11:10 | 72.87667 | 78.17957 | 39989 ft | 497 kts | 251° |
| 2026-04-28 11:10 | 72.85283 | 77.95959 | 39993 ft | 497 kts | 251° |
| 2026-04-28 11:11 | 72.82875 | 77.74012 | 39994 ft | 497 kts | 251° |
| 2026-04-28 11:11 | 72.80441 | 77.52112 | 40020 ft | 497 kts | 250° |
| 2026-04-28 11:12 | 72.77985 | 77.30277 | 40022 ft | 497 kts | 250° |
| 2026-04-28 11:12 | 72.75523 | 77.08659 | 40025 ft | 497 kts | 250° |
| 2026-04-28 11:13 | 72.73019 | 76.86943 | 40030 ft | 497 kts | 250° |
| 2026-04-28 11:13 | 72.70495 | 76.65305 | 40033 ft | 497 kts | 250° |
| 2026-04-28 11:14 | 72.67948 | 76.43736 | 40036 ft | 497 kts | 249° |
| 2026-04-28 11:14 | 72.65378 | 76.22232 | 40043 ft | 497 kts | 249° |
| 2026-04-28 11:15 | 72.62786 | 76.00792 | 40042 ft | 497 kts | 249° |
| 2026-04-28 11:15 | 72.60168 | 75.79389 | 40043 ft | 497 kts | 249° |
| 2026-04-28 11:16 | 72.57530 | 75.58067 | 40050 ft | 497 kts | 249° |
| 2026-04-28 11:16 | 72.54868 | 75.36802 | 40052 ft | 497 kts | 249° |
| 2026-04-28 11:17 | 72.52205 | 75.15763 | 40055 ft | 497 kts | 248° |
| 2026-04-28 11:17 | 72.49499 | 74.94620 | 40051 ft | 497 kts | 248° |
| 2026-04-28 11:18 | 72.46771 | 74.73565 | 40058 ft | 496 kts | 248° |
| 2026-04-28 11:18 | 72.44020 | 74.52561 | 40061 ft | 496 kts | 248° |
| 2026-04-28 11:19 | 72.41255 | 74.31673 | 40061 ft | 496 kts | 248° |
| 2026-04-28 11:19 | 72.38464 | 74.10822 | 40064 ft | 496 kts | 247° |
| 2026-04-28 11:20 | 72.35651 | 73.90035 | 40067 ft | 496 kts | 247° |
| 2026-04-28 11:20 | 72.32822 | 73.69350 | 40067 ft | 495 kts | 247° |
| 2026-04-28 11:21 | 72.29969 | 73.48709 | 40067 ft | 495 kts | 247° |
| 2026-04-28 11:21 | 72.27117 | 73.28301 | 40071 ft | 495 kts | 246° |
| 2026-04-28 11:22 | 72.24226 | 73.07820 | 40072 ft | 495 kts | 246° |
| 2026-04-28 11:22 | 72.21313 | 72.87405 | 40072 ft | 495 kts | 246° |
| 2026-04-28 11:23 | 72.18381 | 72.67072 | 40071 ft | 495 kts | 246° |
| 2026-04-28 11:23 | 72.15431 | 72.46820 | 40073 ft | 494 kts | 246° |
| 2026-04-28 11:24 | 72.12938 | 72.29865 | 40068 ft | 494 kts | 245° |
| 2026-04-28 11:24 | 72.09966 | 72.09838 | 40067 ft | 494 kts | 245° |
| 2026-04-28 11:25 | 72.06957 | 71.89769 | 40063 ft | 494 kts | 245° |
| 2026-04-28 11:25 | 72.03925 | 71.69752 | 40066 ft | 494 kts | 245° |
| 2026-04-28 11:26 | 72.00877 | 71.49824 | 40066 ft | 494 kts | 245° |
| 2026-04-28 11:26 | 71.97805 | 71.29937 | 40065 ft | 494 kts | 244° |
| 2026-04-28 11:27 | 71.94712 | 71.10113 | 40067 ft | 494 kts | 244° |
| 2026-04-28 11:27 | 71.91600 | 70.90365 | 40066 ft | 494 kts | 244° |
| 2026-04-28 11:28 | 71.88466 | 70.70664 | 40067 ft | 494 kts | 244° |
| 2026-04-28 11:28 | 71.85313 | 70.51039 | 40065 ft | 494 kts | 244° |
| 2026-04-28 11:29 | 71.82140 | 70.31483 | 40063 ft | 494 kts | 243° |
| 2026-04-28 11:29 | 71.78952 | 70.12011 | 40071 ft | 494 kts | 243° |
| 2026-04-28 11:30 | 71.75762 | 69.92716 | 40071 ft | 494 kts | 243° |
| 2026-04-28 11:30 | 71.70907 | 69.63698 | 40067 ft | 494 kts | 243° |
| 2026-04-28 11:31 | 71.67648 | 69.44448 | 40070 ft | 494 kts | 243° |
| 2026-04-28 11:31 | 71.64368 | 69.25249 | 40070 ft | 494 kts | 242° |
| 2026-04-28 11:32 | 71.61069 | 69.06120 | 40069 ft | 494 kts | 242° |
| 2026-04-28 11:32 | 71.57758 | 68.87092 | 40067 ft | 494 kts | 242° |
| 2026-04-28 11:33 | 71.54421 | 68.68098 | 40064 ft | 494 kts | 242° |
| 2026-04-28 11:33 | 71.51092 | 68.49314 | 40061 ft | 493 kts | 241° |
| 2026-04-28 11:34 | 71.47724 | 68.30488 | 40061 ft | 493 kts | 241° |
| 2026-04-28 11:34 | 71.44341 | 68.11745 | 40058 ft | 493 kts | 241° |
| 2026-04-28 11:35 | 71.40949 | 67.93115 | 40058 ft | 493 kts | 240° |
| 2026-04-28 11:35 | 71.37532 | 67.74523 | 40056 ft | 493 kts | 240° |
| 2026-04-28 11:36 | 71.34095 | 67.55980 | 40054 ft | 492 kts | 240° |
| 2026-04-28 11:36 | 71.30643 | 67.37523 | 40047 ft | 492 kts | 240° |
| 2026-04-28 11:37 | 71.27174 | 67.19136 | 40044 ft | 492 kts | 240° |
| 2026-04-28 11:37 | 71.23687 | 67.00811 | 40043 ft | 492 kts | 239° |
| 2026-04-28 11:38 | 71.19922 | 66.83092 | 40036 ft | 492 kts | 234° |
| 2026-04-28 11:38 | 71.15848 | 66.66051 | 40035 ft | 492 kts | 233° |
| 2026-04-28 11:39 | 71.11721 | 66.49187 | 40031 ft | 492 kts | 233° |
| 2026-04-28 11:39 | 71.07603 | 66.32470 | 40029 ft | 492 kts | 233° |
| 2026-04-28 11:40 | 71.03455 | 66.15714 | 40021 ft | 492 kts | 233° |
| 2026-04-28 11:40 | 70.99298 | 65.99037 | 40021 ft | 492 kts | 233° |
| 2026-04-28 11:41 | 70.95125 | 65.82421 | 40014 ft | 492 kts | 233° |
| 2026-04-28 11:41 | 70.90938 | 65.65858 | 40013 ft | 492 kts | 232° |
| 2026-04-28 11:42 | 70.86737 | 65.49369 | 40012 ft | 492 kts | 232° |
| 2026-04-28 11:42 | 70.82522 | 65.32964 | 40007 ft | 492 kts | 232° |
| 2026-04-28 11:43 | 70.78286 | 65.16600 | 39999 ft | 492 kts | 232° |
| 2026-04-28 11:43 | 70.74072 | 65.00440 | 39991 ft | 491 kts | 232° |
| 2026-04-28 11:44 | 70.69820 | 64.84254 | 39991 ft | 491 kts | 232° |
| 2026-04-28 11:44 | 70.65557 | 64.68150 | 39988 ft | 491 kts | 231° |
| 2026-04-28 11:45 | 70.61281 | 64.52121 | 39976 ft | 490 kts | 231° |
| 2026-04-28 11:45 | 70.56999 | 64.36188 | 39979 ft | 490 kts | 231° |
| 2026-04-28 11:46 | 70.52742 | 64.20465 | 39970 ft | 478 kts | 231° |
| 2026-04-28 11:46 | 70.48561 | 64.05135 | 39964 ft | 473 kts | 231° |
| 2026-04-28 11:47 | 70.44390 | 63.89951 | 39959 ft | 473 kts | 231° |
| 2026-04-28 11:47 | 70.40202 | 63.74812 | 39963 ft | 473 kts | 230° |
| 2026-04-28 11:48 | 70.36031 | 63.59844 | 39947 ft | 473 kts | 230° |
| 2026-04-28 11:48 | 70.31821 | 63.44841 | 39939 ft | 473 kts | 230° |
| 2026-04-28 11:49 | 70.27601 | 63.29908 | 39934 ft | 472 kts | 230° |
| 2026-04-28 11:49 | 70.23374 | 63.15054 | 39931 ft | 472 kts | 230° |
| 2026-04-28 11:50 | 70.19132 | 63.00249 | 39924 ft | 472 kts | 229° |
| 2026-04-28 11:50 | 70.14878 | 62.85509 | 39917 ft | 472 kts | 229° |
| 2026-04-28 11:51 | 70.10621 | 62.70858 | 39905 ft | 471 kts | 229° |
| 2026-04-28 11:51 | 70.06349 | 62.56259 | 39900 ft | 471 kts | 229° |
| 2026-04-28 11:52 | 70.02068 | 62.41730 | 39893 ft | 471 kts | 229° |
| 2026-04-28 11:52 | 69.97774 | 62.27254 | 39888 ft | 471 kts | 229° |
| 2026-04-28 11:53 | 69.93471 | 62.12851 | 39880 ft | 471 kts | 228° |
| 2026-04-28 11:53 | 69.89173 | 61.98470 | 39870 ft | 471 kts | 228° |
| 2026-04-28 11:54 | 69.84879 | 61.84120 | 39864 ft | 471 kts | 228° |
| 2026-04-28 11:54 | 69.80566 | 61.69815 | 39857 ft | 472 kts | 228° |
| 2026-04-28 11:55 | 69.76732 | 61.54606 | 39845 ft | 474 kts | 240° |
| 2026-04-28 11:55 | 69.74326 | 61.36858 | 39846 ft | 476 kts | 251° |
| 2026-04-28 11:56 | 69.72430 | 61.18560 | 39835 ft | 477 kts | 252° |
| 2026-04-28 11:56 | 69.70564 | 61.00193 | 39830 ft | 478 kts | 251° |
| 2026-04-28 11:57 | 69.68643 | 60.81859 | 39823 ft | 478 kts | 251° |
| 2026-04-28 11:57 | 69.66678 | 60.63571 | 39817 ft | 479 kts | 251° |
| 2026-04-28 11:58 | 69.64687 | 60.45312 | 39808 ft | 479 kts | 251° |
| 2026-04-28 11:58 | 69.62677 | 60.27063 | 39803 ft | 480 kts | 250° |
| 2026-04-28 11:59 | 69.60643 | 60.08811 | 39797 ft | 480 kts | 250° |
| 2026-04-28 11:59 | 69.58590 | 59.90586 | 39799 ft | 481 kts | 250° |
| 2026-04-28 12:00 | 69.56518 | 59.72390 | 39789 ft | 481 kts | 250° |
| 2026-04-28 12:00 | 69.54426 | 59.54213 | 39785 ft | 481 kts | 250° |
| 2026-04-28 12:01 | 69.52315 | 59.36074 | 39776 ft | 482 kts | 250° |
| 2026-04-28 12:01 | 69.50180 | 59.17938 | 39768 ft | 482 kts | 249° |
| 2026-04-28 12:02 | 69.48042 | 58.99967 | 39764 ft | 482 kts | 249° |
| 2026-04-28 12:02 | 69.45868 | 58.81887 | 39763 ft | 482 kts | 249° |
| 2026-04-28 12:03 | 69.43675 | 58.63832 | 39763 ft | 482 kts | 249° |
| 2026-04-28 12:03 | 69.41540 | 58.45729 | 39756 ft | 483 kts | 250° |
| 2026-04-28 12:04 | 69.39507 | 58.27516 | 39747 ft | 484 kts | 250° |
| 2026-04-28 12:04 | 69.37451 | 58.09326 | 39741 ft | 484 kts | 250° |
| 2026-04-28 12:05 | 69.35354 | 57.91180 | 39739 ft | 484 kts | 250° |
| 2026-04-28 12:05 | 69.33228 | 57.73080 | 39735 ft | 485 kts | 250° |
| 2026-04-28 12:06 | 69.31081 | 57.55012 | 39731 ft | 485 kts | 249° |
| 2026-04-28 12:06 | 69.28913 | 57.36953 | 39728 ft | 485 kts | 249° |
| 2026-04-28 12:07 | 69.26727 | 57.18922 | 39725 ft | 485 kts | 249° |
| 2026-04-28 12:07 | 69.24519 | 57.00907 | 39718 ft | 486 kts | 249° |
| 2026-04-28 12:08 | 69.22307 | 56.83051 | 39719 ft | 486 kts | 249° |
| 2026-04-28 12:08 | 69.20062 | 56.65112 | 39714 ft | 486 kts | 249° |
| 2026-04-28 12:09 | 69.17794 | 56.47170 | 39709 ft | 487 kts | 248° |
| 2026-04-28 12:09 | 69.15507 | 56.29267 | 39711 ft | 487 kts | 248° |
| 2026-04-28 12:10 | 69.13203 | 56.11417 | 39705 ft | 487 kts | 248° |
| 2026-04-28 12:10 | 69.10877 | 55.93570 | 39704 ft | 488 kts | 248° |
| 2026-04-28 12:11 | 69.08528 | 55.75733 | 39704 ft | 488 kts | 248° |
| 2026-04-28 12:11 | 69.06163 | 55.57957 | 39700 ft | 488 kts | 248° |
| 2026-04-28 12:12 | 69.04181 | 55.43187 | 39700 ft | 488 kts | 247° |
| 2026-04-28 12:12 | 69.01777 | 55.25438 | 39697 ft | 489 kts | 247° |
| 2026-04-28 12:13 | 68.99360 | 55.07764 | 39694 ft | 489 kts | 247° |
| 2026-04-28 12:13 | 68.96913 | 54.90043 | 39694 ft | 489 kts | 247° |
| 2026-04-28 12:14 | 68.94451 | 54.72388 | 39691 ft | 489 kts | 246° |
| 2026-04-28 12:14 | 68.91968 | 54.54758 | 39693 ft | 489 kts | 246° |
| 2026-04-28 12:15 | 68.89471 | 54.37189 | 39691 ft | 490 kts | 246° |
| 2026-04-28 12:15 | 68.86968 | 54.19742 | 39688 ft | 490 kts | 246° |
| 2026-04-28 12:16 | 68.84431 | 54.02227 | 39686 ft | 490 kts | 246° |
| 2026-04-28 12:16 | 68.81874 | 53.84741 | 39679 ft | 491 kts | 246° |
| 2026-04-28 12:17 | 68.79298 | 53.67289 | 39687 ft | 491 kts | 246° |
| 2026-04-28 12:17 | 68.76700 | 53.49842 | 39674 ft | 491 kts | 245° |
| 2026-04-28 12:18 | 68.74086 | 53.32455 | 39674 ft | 491 kts | 245° |
| 2026-04-28 12:18 | 68.71453 | 53.15098 | 39675 ft | 492 kts | 245° |
| 2026-04-28 12:19 | 68.68798 | 52.97755 | 39679 ft | 492 kts | 245° |
| 2026-04-28 12:19 | 68.66126 | 52.80460 | 39676 ft | 492 kts | 245° |
| 2026-04-28 12:20 | 68.63432 | 52.63181 | 39675 ft | 492 kts | 245° |
| 2026-04-28 12:20 | 68.60721 | 52.45939 | 39672 ft | 493 kts | 244° |
| 2026-04-28 12:21 | 68.57991 | 52.28736 | 39675 ft | 493 kts | 244° |
| 2026-04-28 12:21 | 68.55261 | 52.11681 | 39671 ft | 493 kts | 244° |
| 2026-04-28 12:22 | 68.52491 | 51.94528 | 39674 ft | 493 kts | 244° |
| 2026-04-28 12:22 | 68.49709 | 51.77400 | 39675 ft | 494 kts | 244° |
| 2026-04-28 12:23 | 68.46986 | 51.60205 | 39675 ft | 494 kts | 245° |
| 2026-04-28 12:23 | 68.44270 | 51.43021 | 39677 ft | 495 kts | 245° |
| 2026-04-28 12:24 | 68.41528 | 51.25890 | 39674 ft | 495 kts | 244° |
| 2026-04-28 12:24 | 68.38756 | 51.08776 | 39677 ft | 495 kts | 244° |
| 2026-04-28 12:25 | 68.35965 | 50.91727 | 39675 ft | 495 kts | 244° |
| 2026-04-28 12:25 | 68.33153 | 50.74684 | 39676 ft | 495 kts | 244° |
| 2026-04-28 12:26 | 68.30325 | 50.57691 | 39674 ft | 496 kts | 244° |
| 2026-04-28 12:26 | 68.27475 | 50.40720 | 39675 ft | 496 kts | 243° |
| 2026-04-28 12:27 | 68.24612 | 50.23803 | 39669 ft | 496 kts | 243° |
| 2026-04-28 12:27 | 68.21750 | 50.07043 | 39669 ft | 496 kts | 243° |
| 2026-04-28 12:28 | 68.18844 | 49.90170 | 39673 ft | 496 kts | 243° |
| 2026-04-28 12:28 | 68.15923 | 49.73342 | 39671 ft | 497 kts | 243° |
| 2026-04-28 12:29 | 68.11500 | 49.48141 | 39675 ft | 497 kts | 243° |
| 2026-04-28 12:30 | 68.08536 | 49.31422 | 39672 ft | 497 kts | 242° |
| 2026-04-28 12:30 | 68.05550 | 49.14717 | 39674 ft | 498 kts | 242° |
| 2026-04-28 12:31 | 68.02542 | 48.98031 | 39676 ft | 498 kts | 242° |
| 2026-04-28 12:31 | 67.99517 | 48.81389 | 39677 ft | 498 kts | 242° |
| 2026-04-28 12:32 | 67.96476 | 48.64802 | 39671 ft | 498 kts | 242° |
| 2026-04-28 12:32 | 67.93438 | 48.48344 | 39675 ft | 499 kts | 242° |
| 2026-04-28 12:33 | 67.90359 | 48.31799 | 39677 ft | 499 kts | 241° |
| 2026-04-28 12:33 | 67.87263 | 48.15303 | 39672 ft | 499 kts | 241° |
| 2026-04-28 12:34 | 67.84144 | 47.98837 | 39684 ft | 500 kts | 241° |
| 2026-04-28 12:34 | 67.81005 | 47.82386 | 39680 ft | 500 kts | 241° |
| 2026-04-28 12:35 | 67.77857 | 47.66005 | 39689 ft | 500 kts | 241° |
| 2026-04-28 12:35 | 67.74685 | 47.49625 | 39677 ft | 500 kts | 241° |
| 2026-04-28 12:36 | 67.71498 | 47.33304 | 39678 ft | 501 kts | 240° |
| 2026-04-28 12:36 | 67.68312 | 47.17132 | 39675 ft | 501 kts | 241° |
| 2026-04-28 12:37 | 67.65089 | 47.00884 | 39682 ft | 501 kts | 240° |
| 2026-04-28 12:37 | 67.61851 | 46.84679 | 39680 ft | 501 kts | 240° |
| 2026-04-28 12:38 | 67.58591 | 46.68506 | 39679 ft | 501 kts | 240° |
| 2026-04-28 12:38 | 67.55317 | 46.52391 | 39680 ft | 502 kts | 240° |
| 2026-04-28 12:39 | 67.52029 | 46.36304 | 39679 ft | 502 kts | 240° |
| 2026-04-28 12:39 | 67.48716 | 46.20230 | 39687 ft | 502 kts | 240° |
| 2026-04-28 12:40 | 67.45386 | 46.04197 | 39688 ft | 503 kts | 240° |
| 2026-04-28 12:40 | 67.42034 | 45.88184 | 39693 ft | 503 kts | 240° |
| 2026-04-28 12:41 | 67.38671 | 45.72234 | 39695 ft | 503 kts | 240° |
| 2026-04-28 12:41 | 67.35292 | 45.56329 | 39697 ft | 503 kts | 239° |
| 2026-04-28 12:42 | 67.31892 | 45.40446 | 39697 ft | 504 kts | 239° |
| 2026-04-28 12:42 | 67.28477 | 45.24604 | 39702 ft | 504 kts | 239° |
| 2026-04-28 12:43 | 67.25050 | 45.08829 | 39705 ft | 504 kts | 239° |
| 2026-04-28 12:43 | 67.21594 | 44.93039 | 39707 ft | 504 kts | 239° |
| 2026-04-28 12:44 | 67.18152 | 44.77426 | 39711 ft | 504 kts | 239° |
| 2026-04-28 12:44 | 67.14670 | 44.61744 | 39715 ft | 505 kts | 239° |
| 2026-04-28 12:45 | 67.11174 | 44.46123 | 39718 ft | 505 kts | 239° |
| 2026-04-28 12:45 | 67.07658 | 44.30516 | 39720 ft | 505 kts | 239° |
| 2026-04-28 12:46 | 67.04128 | 44.14967 | 39722 ft | 505 kts | 239° |
| 2026-04-28 12:46 | 67.00580 | 43.99440 | 39725 ft | 505 kts | 238° |
| 2026-04-28 12:47 | 66.97016 | 43.83963 | 39729 ft | 505 kts | 238° |
| 2026-04-28 12:47 | 66.93437 | 43.68525 | 39731 ft | 505 kts | 238° |
| 2026-04-28 12:48 | 66.89841 | 43.53122 | 39731 ft | 506 kts | 238° |
| 2026-04-28 12:48 | 66.86229 | 43.37766 | 39732 ft | 506 kts | 238° |
| 2026-04-28 12:49 | 66.82603 | 43.22459 | 39742 ft | 506 kts | 238° |
| 2026-04-28 12:49 | 66.78976 | 43.07251 | 39744 ft | 506 kts | 238° |
| 2026-04-28 12:50 | 66.75316 | 42.92016 | 39747 ft | 506 kts | 238° |
| 2026-04-28 12:50 | 66.71640 | 42.76818 | 39751 ft | 507 kts | 238° |
| 2026-04-28 12:51 | 66.67955 | 42.61644 | 39754 ft | 507 kts | 238° |
| 2026-04-28 12:51 | 66.64313 | 42.46400 | 39757 ft | 507 kts | 238° |
| 2026-04-28 12:52 | 66.60673 | 42.31179 | 39765 ft | 507 kts | 238° |
| 2026-04-28 12:52 | 66.57011 | 42.16015 | 39769 ft | 507 kts | 238° |
| 2026-04-28 12:53 | 66.53320 | 42.00872 | 39771 ft | 507 kts | 238° |
| 2026-04-28 12:53 | 66.49621 | 41.85804 | 39772 ft | 507 kts | 238° |
| 2026-04-28 12:54 | 66.45906 | 41.70778 | 39777 ft | 508 kts | 238° |
| 2026-04-28 12:54 | 66.42199 | 41.55882 | 39785 ft | 508 kts | 238° |
| 2026-04-28 12:55 | 66.38450 | 41.40922 | 39785 ft | 508 kts | 237° |
| 2026-04-28 12:55 | 66.34681 | 41.25985 | 39784 ft | 508 kts | 237° |
| 2026-04-28 12:56 | 66.30901 | 41.11104 | 39787 ft | 508 kts | 237° |
| 2026-04-28 12:56 | 66.27107 | 40.96269 | 39794 ft | 508 kts | 237° |
| 2026-04-28 12:57 | 66.23295 | 40.81482 | 39796 ft | 509 kts | 237° |
| 2026-04-28 12:57 | 66.19424 | 40.66830 | 39797 ft | 509 kts | 236° |
| 2026-04-28 12:58 | 66.15520 | 40.52225 | 39800 ft | 509 kts | 236° |
| 2026-04-28 12:58 | 66.11634 | 40.37745 | 39802 ft | 509 kts | 236° |
| 2026-04-28 12:59 | 66.07715 | 40.23209 | 39802 ft | 509 kts | 236° |
| 2026-04-28 12:59 | 66.03782 | 40.08711 | 39805 ft | 509 kts | 236° |
| 2026-04-28 13:00 | 65.99833 | 39.94249 | 39808 ft | 509 kts | 236° |
| 2026-04-28 13:00 | 65.96541 | 39.82265 | 39810 ft | 509 kts | 236° |
| 2026-04-28 13:01 | 65.92567 | 39.67884 | 39811 ft | 510 kts | 236° |
| 2026-04-28 13:01 | 65.88573 | 39.53524 | 39810 ft | 510 kts | 236° |
| 2026-04-28 13:02 | 65.84570 | 39.39224 | 39810 ft | 510 kts | 235° |
| 2026-04-28 13:02 | 65.80543 | 39.24935 | 39812 ft | 510 kts | 235° |
| 2026-04-28 13:03 | 65.76503 | 39.10689 | 39816 ft | 511 kts | 235° |
| 2026-04-28 13:03 | 65.72451 | 38.96490 | 39817 ft | 511 kts | 235° |
| 2026-04-28 13:04 | 65.68411 | 38.82426 | 39819 ft | 511 kts | 235° |
| 2026-04-28 13:04 | 65.64332 | 38.68312 | 39821 ft | 511 kts | 235° |
| 2026-04-28 13:05 | 65.60236 | 38.54231 | 39822 ft | 511 kts | 235° |
| 2026-04-28 13:05 | 65.56130 | 38.40205 | 39828 ft | 512 kts | 234° |
| 2026-04-28 13:06 | 65.52009 | 38.26215 | 39828 ft | 512 kts | 234° |
| 2026-04-28 13:06 | 65.47869 | 38.12247 | 39833 ft | 512 kts | 234° |
| 2026-04-28 13:07 | 65.43719 | 37.98335 | 39834 ft | 512 kts | 234° |
| 2026-04-28 13:07 | 65.39551 | 37.84452 | 39836 ft | 512 kts | 234° |
| 2026-04-28 13:08 | 65.35374 | 37.70622 | 39840 ft | 512 kts | 234° |
| 2026-04-28 13:08 | 65.31183 | 37.56831 | 39843 ft | 513 kts | 234° |
| 2026-04-28 13:09 | 65.26972 | 37.43061 | 39846 ft | 512 kts | 234° |
| 2026-04-28 13:09 | 65.22753 | 37.29349 | 39854 ft | 513 kts | 234° |
| 2026-04-28 13:10 | 65.18523 | 37.15685 | 39854 ft | 513 kts | 233° |
| 2026-04-28 13:10 | 65.14272 | 37.02039 | 39859 ft | 513 kts | 233° |
| 2026-04-28 13:11 | 65.10015 | 36.88456 | 39856 ft | 513 kts | 233° |
| 2026-04-28 13:11 | 65.05741 | 36.74901 | 39860 ft | 513 kts | 233° |
| 2026-04-28 13:12 | 65.01478 | 36.61463 | 39859 ft | 513 kts | 233° |
| 2026-04-28 13:12 | 64.97178 | 36.47987 | 39861 ft | 514 kts | 233° |
| 2026-04-28 13:13 | 64.92857 | 36.34531 | 39862 ft | 514 kts | 233° |
| 2026-04-28 13:13 | 64.88528 | 36.21127 | 39865 ft | 514 kts | 233° |
| 2026-04-28 13:14 | 64.84182 | 36.07756 | 39867 ft | 514 kts | 233° |
| 2026-04-28 13:14 | 64.79846 | 35.94415 | 39870 ft | 514 kts | 234° |
| 2026-04-28 13:15 | 64.75691 | 35.80738 | 39877 ft | 514 kts | 236° |
| 2026-04-28 13:15 | 64.71596 | 35.67033 | 39882 ft | 514 kts | 235° |
| 2026-04-28 13:16 | 64.67412 | 35.53445 | 39882 ft | 514 kts | 234° |
| 2026-04-28 13:16 | 64.63173 | 35.39959 | 39887 ft | 515 kts | 234° |
| 2026-04-28 13:17 | 64.58999 | 35.26760 | 39893 ft | 515 kts | 234° |
| 2026-04-28 13:17 | 64.54739 | 35.13346 | 39898 ft | 515 kts | 234° |
| 2026-04-28 13:18 | 64.50429 | 35.00052 | 39895 ft | 515 kts | 230° |
| 2026-04-28 13:18 | 64.45068 | 34.89109 | 39899 ft | 515 kts | 211° |
| 2026-04-28 13:18 | 64.41877 | 34.85364 | 39893 ft | 514 kts | 200° |
| 2026-04-28 13:19 | 64.38467 | 34.83008 | 39895 ft | 513 kts | 189° |
| 2026-04-28 13:19 | 64.31410 | 34.80580 | 39892 ft | 513 kts | 186° |
| 2026-04-28 13:20 | 64.24313 | 34.78723 | 39886 ft | 513 kts | 185° |
| 2026-04-28 13:20 | 64.17224 | 34.76810 | 39884 ft | 513 kts | 186° |
| 2026-04-28 13:21 | 64.10130 | 34.74798 | 39880 ft | 514 kts | 186° |
| 2026-04-28 13:21 | 64.03041 | 34.72747 | 39876 ft | 514 kts | 186° |
| 2026-04-28 13:22 | 63.95955 | 34.70712 | 39871 ft | 513 kts | 186° |
| 2026-04-28 13:22 | 63.88857 | 34.68687 | 39863 ft | 514 kts | 186° |
| 2026-04-28 13:23 | 63.81760 | 34.66666 | 39859 ft | 514 kts | 186° |
| 2026-04-28 13:23 | 63.74655 | 34.64654 | 39855 ft | 514 kts | 186° |
| 2026-04-28 13:24 | 63.67558 | 34.62656 | 39849 ft | 514 kts | 186° |
| 2026-04-28 13:24 | 63.60497 | 34.60688 | 39845 ft | 515 kts | 186° |
| 2026-04-28 13:25 | 63.53388 | 34.58712 | 39843 ft | 515 kts | 186° |
| 2026-04-28 13:25 | 63.46282 | 34.56745 | 39838 ft | 515 kts | 186° |
| 2026-04-28 13:26 | 63.39181 | 34.54786 | 39834 ft | 515 kts | 186° |
| 2026-04-28 13:26 | 63.32066 | 34.52834 | 39830 ft | 515 kts | 186° |
| 2026-04-28 13:27 | 63.24956 | 34.50896 | 39824 ft | 515 kts | 186° |
| 2026-04-28 13:27 | 63.17834 | 34.48968 | 39819 ft | 515 kts | 186° |
| 2026-04-28 13:28 | 63.10720 | 34.47047 | 39817 ft | 515 kts | 186° |
| 2026-04-28 13:28 | 63.03648 | 34.45149 | 39813 ft | 515 kts | 186° |
| 2026-04-28 13:29 | 62.96485 | 34.43232 | 39811 ft | 515 kts | 186° |
| 2026-04-28 13:29 | 62.89412 | 34.41353 | 39808 ft | 516 kts | 186° |
| 2026-04-28 13:30 | 62.82285 | 34.39471 | 39806 ft | 515 kts | 186° |
| 2026-04-28 13:30 | 62.75160 | 34.37592 | 39798 ft | 515 kts | 186° |
| 2026-04-28 13:31 | 62.64477 | 34.34792 | 39799 ft | 515 kts | 186° |
| 2026-04-28 13:31 | 62.57368 | 34.32941 | 39797 ft | 515 kts | 186° |
| 2026-04-28 13:32 | 62.50236 | 34.31094 | 39794 ft | 515 kts | 186° |
| 2026-04-28 13:32 | 62.43159 | 34.29270 | 39797 ft | 515 kts | 186° |
| 2026-04-28 13:33 | 62.36045 | 34.27440 | 39789 ft | 516 kts | 186° |
| 2026-04-28 13:33 | 62.28918 | 34.25619 | 39785 ft | 516 kts | 186° |
| 2026-04-28 13:34 | 62.21784 | 34.23805 | 39791 ft | 516 kts | 186° |
| 2026-04-28 13:34 | 62.14644 | 34.22001 | 39791 ft | 516 kts | 186° |
| 2026-04-28 13:35 | 62.07505 | 34.20206 | 39794 ft | 516 kts | 186° |
| 2026-04-28 13:35 | 62.00366 | 34.18421 | 39798 ft | 516 kts | 186° |
| 2026-04-28 13:36 | 61.93313 | 34.15687 | 39801 ft | 516 kts | 198° |
| 2026-04-28 13:36 | 61.86965 | 34.08755 | 39802 ft | 514 kts | 218° |
| 2026-04-28 13:37 | 61.84330 | 34.03648 | 39801 ft | 513 kts | 229° |
| 2026-04-28 13:37 | 61.82046 | 33.97848 | 39799 ft | 513 kts | 233° |
| 2026-04-28 13:37 | 61.77738 | 33.85799 | 39800 ft | 514 kts | 234° |
| 2026-04-28 13:38 | 61.73501 | 33.73759 | 39803 ft | 514 kts | 234° |
| 2026-04-28 13:38 | 61.69181 | 33.61728 | 39813 ft | 514 kts | 233° |
| 2026-04-28 13:39 | 61.64823 | 33.49777 | 39825 ft | 514 kts | 233° |
| 2026-04-28 13:39 | 61.60449 | 33.37875 | 39824 ft | 515 kts | 233° |
| 2026-04-28 13:40 | 61.56059 | 33.25989 | 39831 ft | 515 kts | 233° |
| 2026-04-28 13:40 | 61.51661 | 33.14142 | 39836 ft | 515 kts | 233° |
| 2026-04-28 13:41 | 61.47146 | 33.02507 | 39849 ft | 516 kts | 226° |
| 2026-04-28 13:41 | 61.42112 | 32.91812 | 39846 ft | 516 kts | 225° |
| 2026-04-28 13:42 | 61.37010 | 32.81407 | 39854 ft | 516 kts | 225° |
| 2026-04-28 13:42 | 61.31856 | 32.70984 | 39859 ft | 516 kts | 225° |
| 2026-04-28 13:43 | 61.26703 | 32.60578 | 39861 ft | 516 kts | 225° |
| 2026-04-28 13:43 | 61.21561 | 32.50220 | 39861 ft | 515 kts | 225° |
| 2026-04-28 13:44 | 61.16402 | 32.39867 | 39865 ft | 515 kts | 225° |
| 2026-04-28 13:44 | 61.11245 | 32.29570 | 39871 ft | 515 kts | 225° |
| 2026-04-28 13:45 | 61.06080 | 32.19308 | 39877 ft | 515 kts | 225° |
| 2026-04-28 13:45 | 61.00900 | 32.09068 | 39882 ft | 515 kts | 225° |
| 2026-04-28 13:46 | 60.96224 | 31.97973 | 39889 ft | 512 kts | 239° |
| 2026-04-28 13:46 | 60.92575 | 31.85421 | 39892 ft | 512 kts | 242° |
| 2026-04-28 13:47 | 60.89120 | 31.72718 | 39899 ft | 512 kts | 242° |
| 2026-04-28 13:47 | 60.85640 | 31.59957 | 39907 ft | 512 kts | 242° |
| 2026-04-28 13:48 | 60.82134 | 31.47248 | 39914 ft | 512 kts | 242° |
| 2026-04-28 13:48 | 60.78592 | 31.34570 | 39922 ft | 512 kts | 242° |
| 2026-04-28 13:49 | 60.75033 | 31.21938 | 39929 ft | 512 kts | 242° |
| 2026-04-28 13:49 | 60.71468 | 31.09330 | 39933 ft | 512 kts | 242° |
| 2026-04-28 13:50 | 60.68494 | 30.98858 | 39940 ft | 513 kts | 242° |
| 2026-04-28 13:50 | 60.64905 | 30.86290 | 39948 ft | 513 kts | 241° |
| 2026-04-28 13:51 | 60.61315 | 30.73768 | 39952 ft | 512 kts | 241° |
| 2026-04-28 13:51 | 60.57707 | 30.61249 | 39955 ft | 512 kts | 241° |
| 2026-04-28 13:52 | 60.54089 | 30.48773 | 39956 ft | 512 kts | 241° |
| 2026-04-28 13:52 | 60.50458 | 30.36301 | 39962 ft | 512 kts | 241° |
| 2026-04-28 13:53 | 60.46820 | 30.23868 | 39964 ft | 513 kts | 241° |
| 2026-04-28 13:53 | 60.43196 | 30.11544 | 39965 ft | 512 kts | 241° |
| 2026-04-28 13:54 | 60.39539 | 29.99180 | 39969 ft | 512 kts | 240° |
| 2026-04-28 13:54 | 60.35887 | 29.86824 | 39971 ft | 511 kts | 242° |
| 2026-04-28 13:55 | 60.33335 | 29.73548 | 39978 ft | 506 kts | 259° |
| 2026-04-28 13:55 | 60.31907 | 29.59651 | 39980 ft | 506 kts | 261° |
| 2026-04-28 13:56 | 60.30652 | 29.45695 | 39987 ft | 506 kts | 262° |
| 2026-04-28 13:56 | 60.29378 | 29.31724 | 39995 ft | 506 kts | 261° |
| 2026-04-28 13:57 | 60.28068 | 29.17867 | 39995 ft | 506 kts | 261° |
| 2026-04-28 13:57 | 60.26721 | 29.03952 | 40002 ft | 506 kts | 261° |
| 2026-04-28 13:58 | 60.25359 | 28.90042 | 40007 ft | 506 kts | 261° |
| 2026-04-28 13:58 | 60.23984 | 28.76136 | 40008 ft | 506 kts | 261° |
| 2026-04-28 13:59 | 60.22598 | 28.62278 | 40015 ft | 506 kts | 261° |
| 2026-04-28 13:59 | 60.21192 | 28.48386 | 40019 ft | 506 kts | 260° |
| 2026-04-28 14:00 | 60.19778 | 28.34545 | 40024 ft | 506 kts | 260° |
| 2026-04-28 14:00 | 60.18345 | 28.20695 | 40030 ft | 505 kts | 260° |
| 2026-04-28 14:01 | 60.16910 | 28.06961 | 40034 ft | 505 kts | 260° |
| 2026-04-28 14:01 | 60.15452 | 27.93163 | 40042 ft | 505 kts | 260° |
| 2026-04-28 14:02 | 60.13976 | 27.79349 | 40043 ft | 505 kts | 259° |
| 2026-04-28 14:02 | 60.13241 | 27.72470 | 38463 ft | 502 kts | 258° |
| 2026-04-28 14:02 | 60.12507 | 27.65654 | 38700 ft | 496 kts | 257° |
| 2026-04-28 14:03 | 60.11774 | 27.58923 | 38950 ft | 492 kts | 257° |
| 2026-04-28 14:03 | 60.11042 | 27.52251 | 39202 ft | 491 kts | 257° |
| 2026-04-28 14:03 | 60.10305 | 27.45565 | 39441 ft | 490 kts | 257° |
| 2026-04-28 14:03 | 60.09567 | 27.38894 | 39685 ft | 490 kts | 257° |
| 2026-04-28 14:04 | 60.08827 | 27.32234 | 39930 ft | 490 kts | 257° |
| 2026-04-28 14:04 | 60.08081 | 27.25557 | 39999 ft | 492 kts | 257° |
| 2026-04-28 14:04 | 60.06582 | 27.12213 | 40000 ft | 491 kts | 257° |
| 2026-04-28 14:05 | 60.05069 | 26.98877 | 39999 ft | 491 kts | 257° |
| 2026-04-28 14:05 | 60.03594 | 26.85628 | 40002 ft | 491 kts | 257° |
| 2026-04-28 14:06 | 60.02152 | 26.72276 | 39999 ft | 491 kts | 257° |
| 2026-04-28 14:06 | 60.00694 | 26.58945 | 39999 ft | 491 kts | 257° |
| 2026-04-28 14:07 | 59.99210 | 26.45608 | 39999 ft | 491 kts | 257° |
| 2026-04-28 14:07 | 59.97709 | 26.32302 | 40002 ft | 491 kts | 257° |
| 2026-04-28 14:08 | 59.96195 | 26.19008 | 40001 ft | 491 kts | 257° |
| 2026-04-28 14:08 | 59.94721 | 26.06181 | 39999 ft | 491 kts | 257° |
| 2026-04-28 14:09 | 59.93178 | 25.92910 | 39999 ft | 491 kts | 257° |
| 2026-04-28 14:09 | 59.91626 | 25.79661 | 40000 ft | 491 kts | 257° |
| 2026-04-28 14:10 | 59.90057 | 25.66389 | 39999 ft | 491 kts | 256° |
| 2026-04-28 14:10 | 59.88477 | 25.53150 | 40002 ft | 491 kts | 256° |
| 2026-04-28 14:11 | 59.86883 | 25.39926 | 39999 ft | 491 kts | 256° |
| 2026-04-28 14:11 | 59.85277 | 25.26717 | 39999 ft | 491 kts | 256° |
| 2026-04-28 14:12 | 59.83655 | 25.13506 | 40001 ft | 491 kts | 256° |
| 2026-04-28 14:12 | 59.82021 | 25.00318 | 39999 ft | 491 kts | 256° |
| 2026-04-28 14:13 | 59.81206 | 24.93821 | 41538 ft | 493 kts | 258° |
| 2026-04-28 14:13 | 59.80370 | 24.87165 | 41305 ft | 500 kts | 258° |
| 2026-04-28 14:13 | 59.79524 | 24.80425 | 41075 ft | 505 kts | 258° |
| 2026-04-28 14:13 | 59.78669 | 24.73646 | 40842 ft | 507 kts | 258° |
| 2026-04-28 14:14 | 59.77809 | 24.66857 | 40618 ft | 507 kts | 258° |
| 2026-04-28 14:14 | 59.76944 | 24.60069 | 40381 ft | 507 kts | 258° |
| 2026-04-28 14:14 | 59.76074 | 24.53280 | 40192 ft | 507 kts | 258° |
| 2026-04-28 14:14 | 59.75202 | 24.46509 | 40162 ft | 507 kts | 258° |
| 2026-04-28 14:15 | 59.73328 | 24.33004 | 40161 ft | 508 kts | 256° |
| 2026-04-28 14:15 | 59.71239 | 24.19630 | 40159 ft | 508 kts | 255° |
| 2026-04-28 14:16 | 59.69136 | 24.06256 | 40166 ft | 508 kts | 255° |
| 2026-04-28 14:16 | 59.67056 | 23.92868 | 40168 ft | 508 kts | 256° |
| 2026-04-28 14:17 | 59.64980 | 23.79498 | 40174 ft | 508 kts | 256° |
| 2026-04-28 14:17 | 59.62895 | 23.66163 | 40177 ft | 508 kts | 255° |
| 2026-04-28 14:18 | 59.60794 | 23.52836 | 40182 ft | 508 kts | 255° |
| 2026-04-28 14:18 | 59.58689 | 23.39597 | 40188 ft | 508 kts | 255° |
| 2026-04-28 14:19 | 59.56560 | 23.26303 | 40193 ft | 508 kts | 255° |
| 2026-04-28 14:19 | 59.54139 | 23.13200 | 40198 ft | 511 kts | 249° |
| 2026-04-28 14:20 | 59.51164 | 23.00460 | 40206 ft | 511 kts | 247° |
| 2026-04-28 14:20 | 59.48098 | 22.87826 | 40211 ft | 512 kts | 247° |
| 2026-04-28 14:21 | 59.45016 | 22.75212 | 40214 ft | 512 kts | 247° |
| 2026-04-28 14:21 | 59.41936 | 22.62620 | 40231 ft | 512 kts | 247° |
| 2026-04-28 14:22 | 59.38848 | 22.50042 | 40232 ft | 512 kts | 247° |
| 2026-04-28 14:22 | 59.35743 | 22.37462 | 40237 ft | 512 kts | 247° |
| 2026-04-28 14:23 | 59.32624 | 22.24893 | 40244 ft | 513 kts | 247° |
| 2026-04-28 14:23 | 59.29493 | 22.12356 | 40252 ft | 513 kts | 247° |
| 2026-04-28 14:24 | 59.26347 | 21.99832 | 40253 ft | 513 kts | 247° |
| 2026-04-28 14:24 | 59.23194 | 21.87348 | 40261 ft | 513 kts | 247° |
| 2026-04-28 14:25 | 59.20043 | 21.74945 | 40269 ft | 513 kts | 247° |
| 2026-04-28 14:25 | 59.16867 | 21.62508 | 40277 ft | 512 kts | 246° |
| 2026-04-28 14:26 | 59.13676 | 21.50085 | 40283 ft | 512 kts | 246° |
| 2026-04-28 14:26 | 59.10474 | 21.37690 | 40289 ft | 512 kts | 246° |
| 2026-04-28 14:27 | 59.06943 | 21.25631 | 40293 ft | 517 kts | 236° |
| 2026-04-28 14:27 | 59.01752 | 21.15917 | 40295 ft | 523 kts | 215° |
| 2026-04-28 14:28 | 58.98550 | 21.12528 | 40298 ft | 526 kts | 204° |
| 2026-04-28 14:28 | 58.95178 | 21.10025 | 40307 ft | 527 kts | 200° |
| 2026-04-28 14:28 | 58.88201 | 21.05578 | 40303 ft | 529 kts | 199° |
| 2026-04-28 14:29 | 58.81186 | 21.01277 | 40303 ft | 529 kts | 199° |
| 2026-04-28 14:29 | 58.74185 | 20.96898 | 40307 ft | 529 kts | 199° |
| 2026-04-28 14:30 | 58.67186 | 20.92467 | 40308 ft | 529 kts | 199° |
| 2026-04-28 14:30 | 58.60195 | 20.88042 | 40311 ft | 529 kts | 199° |
| 2026-04-28 14:31 | 58.53197 | 20.83634 | 40310 ft | 529 kts | 199° |
| 2026-04-28 14:31 | 58.46195 | 20.79247 | 40310 ft | 529 kts | 199° |
| 2026-04-28 14:32 | 58.39193 | 20.74880 | 40312 ft | 529 kts | 199° |
| 2026-04-28 14:32 | 58.32195 | 20.70533 | 40316 ft | 529 kts | 199° |
| 2026-04-28 14:33 | 58.25193 | 20.66201 | 40321 ft | 529 kts | 199° |
| 2026-04-28 14:33 | 58.18229 | 20.61911 | 40323 ft | 529 kts | 199° |
| 2026-04-28 14:34 | 58.07682 | 20.55447 | 40324 ft | 529 kts | 199° |
| 2026-04-28 14:35 | 58.00715 | 20.51199 | 40323 ft | 529 kts | 199° |
| 2026-04-28 14:35 | 57.93701 | 20.46939 | 40324 ft | 530 kts | 199° |
| 2026-04-28 14:36 | 57.86686 | 20.42697 | 40327 ft | 530 kts | 199° |
| 2026-04-28 14:36 | 57.79666 | 20.38469 | 40330 ft | 530 kts | 199° |
| 2026-04-28 14:37 | 57.72648 | 20.34260 | 40332 ft | 530 kts | 199° |
| 2026-04-28 14:37 | 57.65624 | 20.30064 | 40334 ft | 530 kts | 199° |
| 2026-04-28 14:38 | 57.58603 | 20.25887 | 40339 ft | 530 kts | 199° |
| 2026-04-28 14:38 | 57.51575 | 20.21722 | 40340 ft | 530 kts | 199° |
| 2026-04-28 14:39 | 57.45737 | 20.18275 | 40340 ft | 530 kts | 199° |
| 2026-04-28 14:39 | 57.38705 | 20.14140 | 40345 ft | 530 kts | 199° |
| 2026-04-28 14:40 | 57.31671 | 20.10019 | 40345 ft | 530 kts | 199° |
| 2026-04-28 14:40 | 57.24643 | 20.05918 | 40345 ft | 530 kts | 199° |
| 2026-04-28 14:41 | 57.17607 | 20.01829 | 40348 ft | 530 kts | 199° |
| 2026-04-28 14:41 | 57.10616 | 19.97783 | 40353 ft | 530 kts | 199° |
| 2026-04-28 14:42 | 57.03570 | 19.93805 | 40347 ft | 530 kts | 195° |
| 2026-04-28 14:42 | 56.96239 | 19.92464 | 40355 ft | 531 kts | 176° |
| 2026-04-28 14:43 | 56.88938 | 19.93618 | 40348 ft | 532 kts | 173° |
| 2026-04-28 14:43 | 56.81519 | 19.95196 | 40346 ft | 532 kts | 173° |
| 2026-04-28 14:44 | 56.74167 | 19.96735 | 40347 ft | 532 kts | 173° |
| 2026-04-28 14:44 | 56.66800 | 19.98201 | 40351 ft | 532 kts | 174° |
| 2026-04-28 14:45 | 56.59450 | 19.99629 | 40339 ft | 532 kts | 174° |
| 2026-04-28 14:45 | 56.55772 | 20.00339 | 40215 ft | 532 kts | 174° |
| 2026-04-28 14:45 | 56.52081 | 20.01051 | 39992 ft | 532 kts | 174° |
| 2026-04-28 14:45 | 56.48391 | 20.01762 | 39773 ft | 533 kts | 174° |
| 2026-04-28 14:46 | 56.44741 | 20.02465 | 39556 ft | 525 kts | 174° |
| 2026-04-28 14:46 | 56.41103 | 20.03164 | 38908 ft | 527 kts | 174° |
| 2026-04-28 14:46 | 56.37437 | 20.03869 | 38119 ft | 529 kts | 174° |
| 2026-04-28 14:46 | 56.33774 | 20.04572 | 37414 ft | 530 kts | 174° |
| 2026-04-28 14:47 | 56.30153 | 20.05265 | 36714 ft | 531 kts | 174° |
| 2026-04-28 14:47 | 56.26470 | 20.05969 | 35982 ft | 533 kts | 174° |
| 2026-04-28 14:47 | 56.22761 | 20.06676 | 35180 ft | 536 kts | 174° |
| 2026-04-28 14:47 | 56.19040 | 20.07384 | 34324 ft | 541 kts | 174° |
| 2026-04-28 14:48 | 56.15301 | 20.08278 | 33341 ft | 544 kts | 167° |
| 2026-04-28 14:48 | 56.11658 | 20.10131 | 32437 ft | 544 kts | 161° |
| 2026-04-28 14:48 | 56.08063 | 20.12268 | 31516 ft | 546 kts | 159° |
| 2026-04-28 14:48 | 56.04469 | 20.14547 | 30576 ft | 549 kts | 158° |
| 2026-04-28 14:49 | 56.00893 | 20.16878 | 29833 ft | 544 kts | 158° |
| 2026-04-28 14:49 | 55.97359 | 20.19192 | 29146 ft | 538 kts | 158° |
| 2026-04-28 14:49 | 55.93865 | 20.21466 | 28508 ft | 532 kts | 158° |
| 2026-04-28 14:49 | 55.90401 | 20.23701 | 27832 ft | 526 kts | 159° |
| 2026-04-28 14:50 | 55.86976 | 20.25892 | 27184 ft | 521 kts | 159° |
| 2026-04-28 14:50 | 55.83571 | 20.28058 | 26536 ft | 517 kts | 159° |
| 2026-04-28 14:50 | 55.80197 | 20.30195 | 25900 ft | 512 kts | 159° |
| 2026-04-28 14:50 | 55.76899 | 20.32276 | 25266 ft | 508 kts | 159° |
| 2026-04-28 14:51 | 55.73586 | 20.34364 | 24639 ft | 504 kts | 159° |
| 2026-04-28 14:51 | 55.70294 | 20.36434 | 24000 ft | 500 kts | 159° |
| 2026-04-28 14:51 | 55.67030 | 20.38484 | 23285 ft | 495 kts | 159° |
| 2026-04-28 14:51 | 55.63805 | 20.40507 | 22659 ft | 488 kts | 159° |
| 2026-04-28 14:52 | 55.60620 | 20.42501 | 22025 ft | 482 kts | 160° |
| 2026-04-28 14:52 | 55.57481 | 20.44463 | 21401 ft | 475 kts | 160° |
| 2026-04-28 14:52 | 55.54381 | 20.46397 | 20780 ft | 469 kts | 160° |
| 2026-04-28 14:52 | 55.51332 | 20.48297 | 20151 ft | 464 kts | 160° |
| 2026-04-28 14:53 | 55.48302 | 20.50182 | 19542 ft | 458 kts | 160° |
| 2026-04-28 14:53 | 55.45312 | 20.52039 | 18920 ft | 453 kts | 160° |
| 2026-04-28 14:53 | 55.42351 | 20.53862 | 18253 ft | 448 kts | 161° |
| 2026-04-28 14:53 | 55.39344 | 20.55058 | 17637 ft | 441 kts | 173° |
| 2026-04-28 14:54 | 55.36309 | 20.55511 | 17028 ft | 434 kts | 177° |
| 2026-04-28 14:54 | 55.33341 | 20.56196 | 16484 ft | 426 kts | 164° |
| 2026-04-28 14:54 | 55.30722 | 20.58314 | 16332 ft | 406 kts | 143° |
| 2026-04-28 14:54 | 55.28759 | 20.61656 | 16192 ft | 384 kts | 123° |
| 2026-04-28 14:55 | 55.27268 | 20.65417 | 16046 ft | 368 kts | 120° |
| 2026-04-28 14:55 | 55.25877 | 20.69072 | 15919 ft | 355 kts | 120° |
| 2026-04-28 14:55 | 55.24517 | 20.72592 | 15767 ft | 342 kts | 120° |
| 2026-04-28 14:55 | 55.23192 | 20.75974 | 15645 ft | 331 kts | 120° |
| 2026-04-28 14:56 | 55.21901 | 20.79243 | 15513 ft | 320 kts | 121° |
| 2026-04-28 14:56 | 55.20653 | 20.82388 | 15374 ft | 310 kts | 121° |
| 2026-04-28 14:56 | 55.19452 | 20.85399 | 15232 ft | 301 kts | 121° |
| 2026-04-28 14:56 | 55.18256 | 20.88396 | 15043 ft | 294 kts | 120° |
| 2026-04-28 14:57 | 55.17113 | 20.91270 | 14786 ft | 289 kts | 120° |
| 2026-04-28 14:57 | 55.16442 | 20.93314 | 14585 ft | 284 kts | 110° |
| 2026-04-28 14:57 | 55.15452 | 20.97494 | 14203 ft | 279 kts | 106° |
| 2026-04-28 14:57 | 55.14756 | 21.00657 | 13873 ft | 277 kts | 106° |
| 2026-04-28 14:58 | 55.14061 | 21.03791 | 13535 ft | 276 kts | 107° |
| 2026-04-28 14:58 | 55.13366 | 21.06891 | 13240 ft | 272 kts | 107° |
| 2026-04-28 14:58 | 55.12441 | 21.09773 | 12969 ft | 274 kts | 127° |
| 2026-04-28 14:58 | 55.11052 | 21.12040 | 12703 ft | 274 kts | 138° |
| 2026-04-28 14:59 | 55.09554 | 21.14091 | 12430 ft | 273 kts | 139° |
| 2026-04-28 14:59 | 55.08061 | 21.16113 | 12175 ft | 272 kts | 139° |
| 2026-04-28 14:59 | 55.06573 | 21.18143 | 11925 ft | 270 kts | 139° |
| 2026-04-28 14:59 | 55.05058 | 21.20084 | 11651 ft | 271 kts | 147° |
| 2026-04-28 15:00 | 55.03296 | 21.21199 | 11419 ft | 270 kts | 168° |
| 2026-04-28 15:00 | 55.01438 | 21.21713 | 11159 ft | 270 kts | 172° |
| 2026-04-28 15:00 | 54.99580 | 21.22152 | 10895 ft | 270 kts | 172° |
| 2026-04-28 15:00 | 54.97723 | 21.22599 | 10635 ft | 268 kts | 172° |
| 2026-04-28 15:01 | 54.95880 | 21.23052 | 10372 ft | 266 kts | 172° |
| 2026-04-28 15:01 | 54.94043 | 21.23088 | 10117 ft | 264 kts | 192° |
| 2026-04-28 15:01 | 54.92295 | 21.22141 | 9850 ft | 263 kts | 204° |
| 2026-04-28 15:01 | 54.90621 | 21.20966 | 9618 ft | 263 kts | 205° |
| 2026-04-28 15:02 | 54.88932 | 21.19770 | 9360 ft | 262 kts | 204° |
| 2026-04-28 15:02 | 54.87240 | 21.18588 | 9083 ft | 262 kts | 204° |
| 2026-04-28 15:02 | 54.85563 | 21.17390 | 8857 ft | 260 kts | 207° |
| 2026-04-28 15:02 | 54.84107 | 21.15605 | 8618 ft | 254 kts | 231° |
| 2026-04-28 15:03 | 54.82981 | 21.13291 | 8360 ft | 250 kts | 236° |
| 2026-04-28 15:03 | 54.81913 | 21.10909 | 8122 ft | 250 kts | 236° |
| 2026-04-28 15:03 | 54.80848 | 21.08540 | 7861 ft | 249 kts | 236° |
| 2026-04-28 15:03 | 54.79961 | 21.06014 | 7631 ft | 242 kts | 255° |
| 2026-04-28 15:04 | 54.79804 | 21.03215 | 7407 ft | 230 kts | 285° |
| 2026-04-28 15:04 | 54.80440 | 21.00776 | 7243 ft | 220 kts | 311° |
| 2026-04-28 15:04 | 54.81619 | 20.99163 | 6884 ft | 217 kts | 338° |
| 2026-04-28 15:04 | 54.83080 | 20.98522 | 6528 ft | 217 kts | 349° |
| 2026-04-28 15:05 | 54.84531 | 20.97787 | 6205 ft | 217 kts | 340° |
| 2026-04-28 15:05 | 54.85925 | 20.96806 | 5893 ft | 216 kts | 338° |
| 2026-04-28 15:05 | 54.87299 | 20.95787 | 5579 ft | 215 kts | 338° |
| 2026-04-28 15:05 | 54.88657 | 20.94764 | 5183 ft | 209 kts | 338° |
| 2026-04-28 15:06 | 54.89989 | 20.93758 | 4563 ft | 209 kts | 338° |
| 2026-04-28 15:06 | 54.91319 | 20.92752 | 3929 ft | 208 kts | 338° |
| 2026-04-28 15:06 | 54.92639 | 20.91754 | 3354 ft | 205 kts | 338° |
| 2026-04-28 15:06 | 54.93938 | 20.90754 | 2835 ft | 205 kts | 336° |
| 2026-04-28 15:07 | 54.95076 | 20.89355 | 2632 ft | 202 kts | 315° |
| 2026-04-28 15:07 | 54.95564 | 20.87137 | 2575 ft | 198 kts | 279° |
| 2026-04-28 15:07 | 54.95474 | 20.84811 | 2537 ft | 186 kts | 270° |
| 2026-04-28 15:07 | 54.95085 | 20.82714 | 2463 ft | 179 kts | 250° |
| 2026-04-28 15:08 | 54.94561 | 20.80856 | 2323 ft | 164 kts | 254° |
| 2026-04-28 15:08 | 54.94113 | 20.79100 | 2125 ft | 154 kts | 254° |
| 2026-04-28 15:08 | 54.93710 | 20.77523 | 1986 ft | 142 kts | 256° |
| 2026-04-28 15:08 | 54.93324 | 20.75993 | 1850 ft | 137 kts | 256° |
| 2026-04-28 15:09 | 54.92943 | 20.74478 | 1667 ft | 136 kts | 255° |
| 2026-04-28 15:09 | 54.92554 | 20.72975 | 1488 ft | 136 kts | 254° |
| 2026-04-28 15:09 | 54.92166 | 20.71477 | 1284 ft | 135 kts | 255° |
| 2026-04-28 15:09 | 54.91924 | 20.70537 | 1160 ft | 135 kts | 254° |
| 2026-04-28 15:10 | 54.91403 | 20.68513 | 876 ft | 134 kts | 254° |
| 2026-04-28 15:10 | 54.91019 | 20.67029 | 716 ft | 137 kts | 254° |
| 2026-04-28 15:10 | 54.90634 | 20.65552 | 537 ft | 134 kts | 253° |
| 2026-04-28 15:10 | 54.90256 | 20.64096 | 310 ft | 131 kts | 253° |
| 2026-04-28 15:11 | 54.89889 | 20.62661 | 133 ft | 131 kts | 250° |
| 2026-04-28 15:11 | 54.89511 | 20.61223 | 34 ft | 126 kts | 252° |
| 2026-04-28 15:11 | 54.89193 | 20.59961 | 27 ft | 95 kts | 246° |
| 2026-04-28 15:11 | 54.89039 | 20.59372 | 31 ft | 23 kts | 244° |
| 2026-04-28 15:12 | 54.88942 | 20.59150 | 31 ft | 24 kts | 219° |
| 2026-04-28 15:12 | 54.88797 | 20.59016 | 32 ft | 20 kts | 207° |
| 2026-04-28 15:12 | 54.88703 | 20.58876 | 32 ft | 14 kts | 244° |
| 2026-04-28 15:12 | 54.88695 | 20.58845 | 33 ft | 0 kts | 246° |
| 2026-04-28 15:13 | 54.88694 | 20.58841 | 33 ft | 5 kts | 246° |
| 2026-04-28 15:13 | 54.88653 | 20.58759 | 33 ft | 7 kts | 188° |
| 2026-04-28 15:13 | 54.88592 | 20.58792 | 33 ft | 12 kts | 157° |
| 2026-04-28 15:13 | 54.88511 | 20.58839 | 33 ft | 6 kts | 173° |
| 2026-04-28 15:14 | 54.88476 | 20.58843 | 33 ft | 0 kts | 176° |
| 2026-04-28 15:14 | 54.88460 | 20.58841 | 33 ft | 2 kts | 186° |
| 2026-04-28 15:14 | 54.88441 | 20.58825 | 33 ft | 5 kts | 213° |
| 2026-04-28 15:14 | 54.88424 | 20.58802 | 33 ft | 0 kts | 219° |
| 2026-04-28 15:15 | 54.88420 | 20.58795 | 33 ft | 1 kts | 222° |
| 2026-04-28 15:15 | 54.88415 | 20.58786 | 33 ft | 0 kts | 222° |